<?xml version="1.0" encoding="UTF-8" standalone="no" ?>
<gpx xmlns="http://www.topografix.com/GPX/1/1" xmlns:xsi="http://www.w3.org/2001/XMLSchema-instance" xsi:schemaLocation="http://www.topografix.com/GPX/1/1 http://www.topografix.com/GPX/1/1/gpx.xsd" version="1.1" creator="VisuGPX - https://www.visugpx.com">
  <metadata>
    <name>MUCO MOTO 2013 2/3</name>
    <desc><![CDATA[muco 2013 2/3]]></desc>
  </metadata>
  <trk>
    <name><![CDATA[dim. 22/sept./2013 16:07:26]]></name>
    <trkseg>
      <trkpt lat="47.99523" lon="2.9952">
        <ele>168</ele>
        <time>2013-09-22T14:07:26Z</time>
      </trkpt>
      <trkpt lat="47.99514" lon="2.99551">
        <ele>161</ele>
        <time>2013-09-22T14:07:52Z</time>
      </trkpt>
      <trkpt lat="47.99503" lon="2.99586">
        <ele>162</ele>
        <time>2013-09-22T14:07:54Z</time>
      </trkpt>
      <trkpt lat="47.99488" lon="2.99636">
        <ele>163</ele>
        <time>2013-09-22T14:07:56Z</time>
      </trkpt>
      <trkpt lat="47.99479" lon="2.99664">
        <ele>163</ele>
        <time>2013-09-22T14:07:57Z</time>
      </trkpt>
      <trkpt lat="47.9947" lon="2.99696">
        <ele>163</ele>
        <time>2013-09-22T14:07:58Z</time>
      </trkpt>
      <trkpt lat="47.9946" lon="2.9973">
        <ele>164</ele>
        <time>2013-09-22T14:07:59Z</time>
      </trkpt>
      <trkpt lat="47.9945" lon="2.99764">
        <ele>164</ele>
        <time>2013-09-22T14:08:00Z</time>
      </trkpt>
      <trkpt lat="47.99439" lon="2.998">
        <ele>164</ele>
        <time>2013-09-22T14:08:01Z</time>
      </trkpt>
      <trkpt lat="47.99427" lon="2.99838">
        <ele>165</ele>
        <time>2013-09-22T14:08:02Z</time>
      </trkpt>
      <trkpt lat="47.99415" lon="2.99877">
        <ele>165</ele>
        <time>2013-09-22T14:08:03Z</time>
      </trkpt>
      <trkpt lat="47.99403" lon="2.99916">
        <ele>166</ele>
        <time>2013-09-22T14:08:04Z</time>
      </trkpt>
      <trkpt lat="47.99391" lon="2.99955">
        <ele>167</ele>
        <time>2013-09-22T14:08:05Z</time>
      </trkpt>
      <trkpt lat="47.9938" lon="2.99992">
        <ele>167</ele>
        <time>2013-09-22T14:08:06Z</time>
      </trkpt>
      <trkpt lat="47.99368" lon="3.00029">
        <ele>168</ele>
        <time>2013-09-22T14:08:07Z</time>
      </trkpt>
      <trkpt lat="47.99357" lon="3.00065">
        <ele>169</ele>
        <time>2013-09-22T14:08:08Z</time>
      </trkpt>
      <trkpt lat="47.99346" lon="3.00101">
        <ele>169</ele>
        <time>2013-09-22T14:08:09Z</time>
      </trkpt>
      <trkpt lat="47.99336" lon="3.00137">
        <ele>170</ele>
        <time>2013-09-22T14:08:10Z</time>
      </trkpt>
      <trkpt lat="47.99325" lon="3.00172">
        <ele>170</ele>
        <time>2013-09-22T14:08:11Z</time>
      </trkpt>
      <trkpt lat="47.99313" lon="3.00209">
        <ele>171</ele>
        <time>2013-09-22T14:08:12Z</time>
      </trkpt>
      <trkpt lat="47.99302" lon="3.00246">
        <ele>171</ele>
        <time>2013-09-22T14:08:13Z</time>
      </trkpt>
      <trkpt lat="47.99291" lon="3.00282">
        <ele>171</ele>
        <time>2013-09-22T14:08:14Z</time>
      </trkpt>
      <trkpt lat="47.9928" lon="3.0032">
        <ele>171</ele>
        <time>2013-09-22T14:08:15Z</time>
      </trkpt>
      <trkpt lat="47.99268" lon="3.00359">
        <ele>171</ele>
        <time>2013-09-22T14:08:16Z</time>
      </trkpt>
      <trkpt lat="47.99256" lon="3.00399">
        <ele>170</ele>
        <time>2013-09-22T14:08:17Z</time>
      </trkpt>
      <trkpt lat="47.99244" lon="3.0044">
        <ele>170</ele>
        <time>2013-09-22T14:08:18Z</time>
      </trkpt>
      <trkpt lat="47.99231" lon="3.00482">
        <ele>169</ele>
        <time>2013-09-22T14:08:19Z</time>
      </trkpt>
      <trkpt lat="47.99218" lon="3.00523">
        <ele>170</ele>
        <time>2013-09-22T14:08:20Z</time>
      </trkpt>
      <trkpt lat="47.99205" lon="3.00566">
        <ele>170</ele>
        <time>2013-09-22T14:08:21Z</time>
      </trkpt>
      <trkpt lat="47.99192" lon="3.00607">
        <ele>170</ele>
        <time>2013-09-22T14:08:22Z</time>
      </trkpt>
      <trkpt lat="47.99179" lon="3.0065">
        <ele>170</ele>
        <time>2013-09-22T14:08:23Z</time>
      </trkpt>
      <trkpt lat="47.99166" lon="3.00691">
        <ele>171</ele>
        <time>2013-09-22T14:08:24Z</time>
      </trkpt>
      <trkpt lat="47.99153" lon="3.00732">
        <ele>172</ele>
        <time>2013-09-22T14:08:25Z</time>
      </trkpt>
      <trkpt lat="47.99141" lon="3.00773">
        <ele>172</ele>
        <time>2013-09-22T14:08:26Z</time>
      </trkpt>
      <trkpt lat="47.99128" lon="3.00814">
        <ele>173</ele>
        <time>2013-09-22T14:08:27Z</time>
      </trkpt>
      <trkpt lat="47.99116" lon="3.00854">
        <ele>173</ele>
        <time>2013-09-22T14:08:28Z</time>
      </trkpt>
      <trkpt lat="47.99104" lon="3.00894">
        <ele>173</ele>
        <time>2013-09-22T14:08:29Z</time>
      </trkpt>
      <trkpt lat="47.99091" lon="3.00934">
        <ele>174</ele>
        <time>2013-09-22T14:08:30Z</time>
      </trkpt>
      <trkpt lat="47.99079" lon="3.00974">
        <ele>174</ele>
        <time>2013-09-22T14:08:31Z</time>
      </trkpt>
      <trkpt lat="47.99067" lon="3.01014">
        <ele>175</ele>
        <time>2013-09-22T14:08:32Z</time>
      </trkpt>
      <trkpt lat="47.99055" lon="3.01053">
        <ele>175</ele>
        <time>2013-09-22T14:08:33Z</time>
      </trkpt>
      <trkpt lat="47.99043" lon="3.01093">
        <ele>176</ele>
        <time>2013-09-22T14:08:34Z</time>
      </trkpt>
      <trkpt lat="47.9903" lon="3.01132">
        <ele>176</ele>
        <time>2013-09-22T14:08:35Z</time>
      </trkpt>
      <trkpt lat="47.99018" lon="3.0117">
        <ele>177</ele>
        <time>2013-09-22T14:08:36Z</time>
      </trkpt>
      <trkpt lat="47.99007" lon="3.01206">
        <ele>177</ele>
        <time>2013-09-22T14:08:37Z</time>
      </trkpt>
      <trkpt lat="47.98995" lon="3.01243">
        <ele>177</ele>
        <time>2013-09-22T14:08:38Z</time>
      </trkpt>
      <trkpt lat="47.98984" lon="3.0128">
        <ele>177</ele>
        <time>2013-09-22T14:08:39Z</time>
      </trkpt>
      <trkpt lat="47.98973" lon="3.01318">
        <ele>177</ele>
        <time>2013-09-22T14:08:40Z</time>
      </trkpt>
      <trkpt lat="47.98962" lon="3.01354">
        <ele>178</ele>
        <time>2013-09-22T14:08:41Z</time>
      </trkpt>
      <trkpt lat="47.98951" lon="3.01387">
        <ele>178</ele>
        <time>2013-09-22T14:08:42Z</time>
      </trkpt>
      <trkpt lat="47.98941" lon="3.0142">
        <ele>178</ele>
        <time>2013-09-22T14:08:43Z</time>
      </trkpt>
      <trkpt lat="47.98931" lon="3.01451">
        <ele>178</ele>
        <time>2013-09-22T14:08:44Z</time>
      </trkpt>
      <trkpt lat="47.98922" lon="3.0148">
        <ele>178</ele>
        <time>2013-09-22T14:08:45Z</time>
      </trkpt>
      <trkpt lat="47.98914" lon="3.01506">
        <ele>178</ele>
        <time>2013-09-22T14:08:46Z</time>
      </trkpt>
      <trkpt lat="47.98901" lon="3.01549">
        <ele>178</ele>
        <time>2013-09-22T14:08:48Z</time>
      </trkpt>
      <trkpt lat="47.98891" lon="3.01579">
        <ele>178</ele>
        <time>2013-09-22T14:08:50Z</time>
      </trkpt>
      <trkpt lat="47.98878" lon="3.01607">
        <ele>179</ele>
        <time>2013-09-22T14:08:57Z</time>
      </trkpt>
      <trkpt lat="47.98858" lon="3.01626">
        <ele>178</ele>
        <time>2013-09-22T14:08:59Z</time>
      </trkpt>
      <trkpt lat="47.98806" lon="3.01649">
        <ele>176</ele>
        <time>2013-09-22T14:09:02Z</time>
      </trkpt>
      <trkpt lat="47.98786" lon="3.01659">
        <ele>176</ele>
        <time>2013-09-22T14:09:03Z</time>
      </trkpt>
      <trkpt lat="47.98765" lon="3.01668">
        <ele>175</ele>
        <time>2013-09-22T14:09:04Z</time>
      </trkpt>
      <trkpt lat="47.98744" lon="3.01677">
        <ele>175</ele>
        <time>2013-09-22T14:09:05Z</time>
      </trkpt>
      <trkpt lat="47.98725" lon="3.01686">
        <ele>175</ele>
        <time>2013-09-22T14:09:06Z</time>
      </trkpt>
      <trkpt lat="47.98705" lon="3.01698">
        <ele>175</ele>
        <time>2013-09-22T14:09:07Z</time>
      </trkpt>
      <trkpt lat="47.98687" lon="3.01714">
        <ele>174</ele>
        <time>2013-09-22T14:09:08Z</time>
      </trkpt>
      <trkpt lat="47.98668" lon="3.01734">
        <ele>174</ele>
        <time>2013-09-22T14:09:09Z</time>
      </trkpt>
      <trkpt lat="47.9865" lon="3.01754">
        <ele>174</ele>
        <time>2013-09-22T14:09:10Z</time>
      </trkpt>
      <trkpt lat="47.98634" lon="3.01775">
        <ele>174</ele>
        <time>2013-09-22T14:09:11Z</time>
      </trkpt>
      <trkpt lat="47.98618" lon="3.018">
        <ele>174</ele>
        <time>2013-09-22T14:09:12Z</time>
      </trkpt>
      <trkpt lat="47.98605" lon="3.01825">
        <ele>175</ele>
        <time>2013-09-22T14:09:13Z</time>
      </trkpt>
      <trkpt lat="47.98592" lon="3.01852">
        <ele>175</ele>
        <time>2013-09-22T14:09:14Z</time>
      </trkpt>
      <trkpt lat="47.98581" lon="3.0189">
        <ele>177</ele>
        <time>2013-09-22T14:09:15Z</time>
      </trkpt>
      <trkpt lat="47.9857" lon="3.01923">
        <ele>178</ele>
        <time>2013-09-22T14:09:16Z</time>
      </trkpt>
      <trkpt lat="47.9856" lon="3.01962">
        <ele>176</ele>
        <time>2013-09-22T14:09:17Z</time>
      </trkpt>
      <trkpt lat="47.9855" lon="3.01997">
        <ele>176</ele>
        <time>2013-09-22T14:09:18Z</time>
      </trkpt>
      <trkpt lat="47.9854" lon="3.02029">
        <ele>175</ele>
        <time>2013-09-22T14:09:19Z</time>
      </trkpt>
      <trkpt lat="47.98531" lon="3.0206">
        <ele>175</ele>
        <time>2013-09-22T14:09:20Z</time>
      </trkpt>
      <trkpt lat="47.98524" lon="3.02092">
        <ele>175</ele>
        <time>2013-09-22T14:09:21Z</time>
      </trkpt>
      <trkpt lat="47.9852" lon="3.02125">
        <ele>174</ele>
        <time>2013-09-22T14:09:22Z</time>
      </trkpt>
      <trkpt lat="47.98515" lon="3.02157">
        <ele>174</ele>
        <time>2013-09-22T14:09:23Z</time>
      </trkpt>
      <trkpt lat="47.98512" lon="3.02184">
        <ele>173</ele>
        <time>2013-09-22T14:09:24Z</time>
      </trkpt>
      <trkpt lat="47.98508" lon="3.02211">
        <ele>173</ele>
        <time>2013-09-22T14:09:25Z</time>
      </trkpt>
      <trkpt lat="47.98501" lon="3.02263">
        <ele>172</ele>
        <time>2013-09-22T14:09:27Z</time>
      </trkpt>
      <trkpt lat="47.98498" lon="3.02292">
        <ele>172</ele>
        <time>2013-09-22T14:09:28Z</time>
      </trkpt>
      <trkpt lat="47.98495" lon="3.02322">
        <ele>171</ele>
        <time>2013-09-22T14:09:29Z</time>
      </trkpt>
      <trkpt lat="47.98493" lon="3.0235">
        <ele>171</ele>
        <time>2013-09-22T14:09:30Z</time>
      </trkpt>
      <trkpt lat="47.98493" lon="3.02379">
        <ele>171</ele>
        <time>2013-09-22T14:09:31Z</time>
      </trkpt>
      <trkpt lat="47.98498" lon="3.02406">
        <ele>170</ele>
        <time>2013-09-22T14:09:32Z</time>
      </trkpt>
      <trkpt lat="47.98506" lon="3.02433">
        <ele>169</ele>
        <time>2013-09-22T14:09:33Z</time>
      </trkpt>
      <trkpt lat="47.98515" lon="3.02461">
        <ele>169</ele>
        <time>2013-09-22T14:09:34Z</time>
      </trkpt>
      <trkpt lat="47.98526" lon="3.02489">
        <ele>168</ele>
        <time>2013-09-22T14:09:35Z</time>
      </trkpt>
      <trkpt lat="47.98535" lon="3.02517">
        <ele>168</ele>
        <time>2013-09-22T14:09:36Z</time>
      </trkpt>
      <trkpt lat="47.98544" lon="3.02543">
        <ele>167</ele>
        <time>2013-09-22T14:09:37Z</time>
      </trkpt>
      <trkpt lat="47.98559" lon="3.0259">
        <ele>167</ele>
        <time>2013-09-22T14:09:39Z</time>
      </trkpt>
      <trkpt lat="47.98562" lon="3.02618">
        <ele>166</ele>
        <time>2013-09-22T14:09:40Z</time>
      </trkpt>
      <trkpt lat="47.9856" lon="3.02646">
        <ele>166</ele>
        <time>2013-09-22T14:09:41Z</time>
      </trkpt>
      <trkpt lat="47.98556" lon="3.02676">
        <ele>165</ele>
        <time>2013-09-22T14:09:42Z</time>
      </trkpt>
      <trkpt lat="47.98551" lon="3.02706">
        <ele>164</ele>
        <time>2013-09-22T14:09:43Z</time>
      </trkpt>
      <trkpt lat="47.98543" lon="3.02742">
        <ele>164</ele>
        <time>2013-09-22T14:09:44Z</time>
      </trkpt>
      <trkpt lat="47.98537" lon="3.02776">
        <ele>163</ele>
        <time>2013-09-22T14:09:45Z</time>
      </trkpt>
      <trkpt lat="47.9853" lon="3.02811">
        <ele>163</ele>
        <time>2013-09-22T14:09:46Z</time>
      </trkpt>
      <trkpt lat="47.98524" lon="3.02847">
        <ele>162</ele>
        <time>2013-09-22T14:09:47Z</time>
      </trkpt>
      <trkpt lat="47.98517" lon="3.02883">
        <ele>161</ele>
        <time>2013-09-22T14:09:48Z</time>
      </trkpt>
      <trkpt lat="47.9851" lon="3.0292">
        <ele>161</ele>
        <time>2013-09-22T14:09:49Z</time>
      </trkpt>
      <trkpt lat="47.98502" lon="3.02957">
        <ele>161</ele>
        <time>2013-09-22T14:09:50Z</time>
      </trkpt>
      <trkpt lat="47.98496" lon="3.02993">
        <ele>161</ele>
        <time>2013-09-22T14:09:51Z</time>
      </trkpt>
      <trkpt lat="47.98489" lon="3.03031">
        <ele>160</ele>
        <time>2013-09-22T14:09:52Z</time>
      </trkpt>
      <trkpt lat="47.98482" lon="3.03068">
        <ele>160</ele>
        <time>2013-09-22T14:09:53Z</time>
      </trkpt>
      <trkpt lat="47.98475" lon="3.03105">
        <ele>160</ele>
        <time>2013-09-22T14:09:54Z</time>
      </trkpt>
      <trkpt lat="47.98468" lon="3.03143">
        <ele>159</ele>
        <time>2013-09-22T14:09:55Z</time>
      </trkpt>
      <trkpt lat="47.98462" lon="3.03179">
        <ele>159</ele>
        <time>2013-09-22T14:09:56Z</time>
      </trkpt>
      <trkpt lat="47.98455" lon="3.03216">
        <ele>159</ele>
        <time>2013-09-22T14:09:57Z</time>
      </trkpt>
      <trkpt lat="47.98448" lon="3.03253">
        <ele>158</ele>
        <time>2013-09-22T14:09:58Z</time>
      </trkpt>
      <trkpt lat="47.98442" lon="3.03288">
        <ele>158</ele>
        <time>2013-09-22T14:09:59Z</time>
      </trkpt>
      <trkpt lat="47.98436" lon="3.03323">
        <ele>158</ele>
        <time>2013-09-22T14:10:00Z</time>
      </trkpt>
      <trkpt lat="47.9843" lon="3.03358">
        <ele>158</ele>
        <time>2013-09-22T14:10:01Z</time>
      </trkpt>
      <trkpt lat="47.98425" lon="3.03393">
        <ele>159</ele>
        <time>2013-09-22T14:10:02Z</time>
      </trkpt>
      <trkpt lat="47.9842" lon="3.03429">
        <ele>160</ele>
        <time>2013-09-22T14:10:03Z</time>
      </trkpt>
      <trkpt lat="47.98416" lon="3.03464">
        <ele>160</ele>
        <time>2013-09-22T14:10:04Z</time>
      </trkpt>
      <trkpt lat="47.98412" lon="3.035">
        <ele>160</ele>
        <time>2013-09-22T14:10:05Z</time>
      </trkpt>
      <trkpt lat="47.98409" lon="3.03535">
        <ele>159</ele>
        <time>2013-09-22T14:10:06Z</time>
      </trkpt>
      <trkpt lat="47.98406" lon="3.03572">
        <ele>159</ele>
        <time>2013-09-22T14:10:07Z</time>
      </trkpt>
      <trkpt lat="47.98403" lon="3.03607">
        <ele>159</ele>
        <time>2013-09-22T14:10:08Z</time>
      </trkpt>
      <trkpt lat="47.98399" lon="3.0364">
        <ele>159</ele>
        <time>2013-09-22T14:11:09Z</time>
      </trkpt>
      <trkpt lat="47.98396" lon="3.03667">
        <ele>159</ele>
        <time>2013-09-22T14:11:10Z</time>
      </trkpt>
      <trkpt lat="47.98385" lon="3.03713">
        <ele>158</ele>
        <time>2013-09-22T14:11:12Z</time>
      </trkpt>
      <trkpt lat="47.98365" lon="3.03756">
        <ele>156</ele>
        <time>2013-09-22T14:11:14Z</time>
      </trkpt>
      <trkpt lat="47.98351" lon="3.03774">
        <ele>155</ele>
        <time>2013-09-22T14:11:15Z</time>
      </trkpt>
      <trkpt lat="47.98325" lon="3.03786">
        <ele>152</ele>
        <time>2013-09-22T14:11:16Z</time>
      </trkpt>
      <trkpt lat="47.98307" lon="3.03803">
        <ele>152</ele>
        <time>2013-09-22T14:11:17Z</time>
      </trkpt>
      <trkpt lat="47.98291" lon="3.03818">
        <ele>151</ele>
        <time>2013-09-22T14:11:18Z</time>
      </trkpt>
      <trkpt lat="47.98274" lon="3.03835">
        <ele>151</ele>
        <time>2013-09-22T14:11:19Z</time>
      </trkpt>
      <trkpt lat="47.98258" lon="3.03851">
        <ele>151</ele>
        <time>2013-09-22T14:11:20Z</time>
      </trkpt>
      <trkpt lat="47.98248" lon="3.03876">
        <ele>152</ele>
        <time>2013-09-22T14:11:21Z</time>
      </trkpt>
      <trkpt lat="47.98236" lon="3.039">
        <ele>152</ele>
        <time>2013-09-22T14:11:22Z</time>
      </trkpt>
      <trkpt lat="47.98224" lon="3.03927">
        <ele>152</ele>
        <time>2013-09-22T14:11:23Z</time>
      </trkpt>
      <trkpt lat="47.98212" lon="3.03955">
        <ele>152</ele>
        <time>2013-09-22T14:11:24Z</time>
      </trkpt>
      <trkpt lat="47.98206" lon="3.03992">
        <ele>151</ele>
        <time>2013-09-22T14:11:25Z</time>
      </trkpt>
      <trkpt lat="47.98203" lon="3.04031">
        <ele>151</ele>
        <time>2013-09-22T14:11:26Z</time>
      </trkpt>
      <trkpt lat="47.98196" lon="3.04068">
        <ele>153</ele>
        <time>2013-09-22T14:11:27Z</time>
      </trkpt>
      <trkpt lat="47.98189" lon="3.04104">
        <ele>153</ele>
        <time>2013-09-22T14:11:28Z</time>
      </trkpt>
      <trkpt lat="47.98181" lon="3.04143">
        <ele>154</ele>
        <time>2013-09-22T14:11:29Z</time>
      </trkpt>
      <trkpt lat="47.98174" lon="3.0418">
        <ele>154</ele>
        <time>2013-09-22T14:11:30Z</time>
      </trkpt>
      <trkpt lat="47.98167" lon="3.04218">
        <ele>155</ele>
        <time>2013-09-22T14:11:31Z</time>
      </trkpt>
      <trkpt lat="47.9816" lon="3.04255">
        <ele>155</ele>
        <time>2013-09-22T14:11:32Z</time>
      </trkpt>
      <trkpt lat="47.98153" lon="3.04293">
        <ele>157</ele>
        <time>2013-09-22T14:11:34Z</time>
      </trkpt>
      <trkpt lat="47.98146" lon="3.04331">
        <ele>157</ele>
        <time>2013-09-22T14:11:35Z</time>
      </trkpt>
      <trkpt lat="47.9814" lon="3.04368">
        <ele>157</ele>
        <time>2013-09-22T14:11:35Z</time>
      </trkpt>
      <trkpt lat="47.98133" lon="3.04404">
        <ele>158</ele>
        <time>2013-09-22T14:11:36Z</time>
      </trkpt>
      <trkpt lat="47.98127" lon="3.04441">
        <ele>158</ele>
        <time>2013-09-22T14:11:37Z</time>
      </trkpt>
      <trkpt lat="47.9812" lon="3.04476">
        <ele>159</ele>
        <time>2013-09-22T14:11:38Z</time>
      </trkpt>
      <trkpt lat="47.98114" lon="3.04512">
        <ele>159</ele>
        <time>2013-09-22T14:11:39Z</time>
      </trkpt>
      <trkpt lat="47.98108" lon="3.04547">
        <ele>160</ele>
        <time>2013-09-22T14:11:40Z</time>
      </trkpt>
      <trkpt lat="47.98101" lon="3.04582">
        <ele>160</ele>
        <time>2013-09-22T14:11:42Z</time>
      </trkpt>
      <trkpt lat="47.98095" lon="3.04617">
        <ele>159</ele>
        <time>2013-09-22T14:11:42Z</time>
      </trkpt>
      <trkpt lat="47.98088" lon="3.04652">
        <ele>160</ele>
        <time>2013-09-22T14:11:43Z</time>
      </trkpt>
      <trkpt lat="47.98081" lon="3.04687">
        <ele>160</ele>
        <time>2013-09-22T14:11:44Z</time>
      </trkpt>
      <trkpt lat="47.98075" lon="3.04721">
        <ele>160</ele>
        <time>2013-09-22T14:11:45Z</time>
      </trkpt>
      <trkpt lat="47.98069" lon="3.04755">
        <ele>161</ele>
        <time>2013-09-22T14:11:46Z</time>
      </trkpt>
      <trkpt lat="47.98064" lon="3.04786">
        <ele>161</ele>
        <time>2013-09-22T14:11:48Z</time>
      </trkpt>
      <trkpt lat="47.98058" lon="3.04816">
        <ele>161</ele>
        <time>2013-09-22T14:11:49Z</time>
      </trkpt>
      <trkpt lat="47.98052" lon="3.04845">
        <ele>162</ele>
        <time>2013-09-22T14:11:49Z</time>
      </trkpt>
      <trkpt lat="47.98047" lon="3.04872">
        <ele>162</ele>
        <time>2013-09-22T14:11:50Z</time>
      </trkpt>
      <trkpt lat="47.98032" lon="3.04923">
        <ele>162</ele>
        <time>2013-09-22T14:11:52Z</time>
      </trkpt>
      <trkpt lat="47.98019" lon="3.04945">
        <ele>162</ele>
        <time>2013-09-22T14:11:54Z</time>
      </trkpt>
      <trkpt lat="47.98005" lon="3.04965">
        <ele>162</ele>
        <time>2013-09-22T14:11:54Z</time>
      </trkpt>
      <trkpt lat="47.9799" lon="3.04986">
        <ele>159</ele>
        <time>2013-09-22T14:11:55Z</time>
      </trkpt>
      <trkpt lat="47.97973" lon="3.05006">
        <ele>159</ele>
        <time>2013-09-22T14:11:56Z</time>
      </trkpt>
      <trkpt lat="47.97956" lon="3.05028">
        <ele>159</ele>
        <time>2013-09-22T14:11:57Z</time>
      </trkpt>
      <trkpt lat="47.97937" lon="3.05051">
        <ele>159</ele>
        <time>2013-09-22T14:11:58Z</time>
      </trkpt>
      <trkpt lat="47.9792" lon="3.05074">
        <ele>157</ele>
        <time>2013-09-22T14:11:59Z</time>
      </trkpt>
      <trkpt lat="47.97901" lon="3.05097">
        <ele>157</ele>
        <time>2013-09-22T14:12:00Z</time>
      </trkpt>
      <trkpt lat="47.97882" lon="3.0512">
        <ele>159</ele>
        <time>2013-09-22T14:12:02Z</time>
      </trkpt>
      <trkpt lat="47.97864" lon="3.05142">
        <ele>159</ele>
        <time>2013-09-22T14:12:02Z</time>
      </trkpt>
      <trkpt lat="47.97831" lon="3.05184">
        <ele>160</ele>
        <time>2013-09-22T14:12:04Z</time>
      </trkpt>
      <trkpt lat="47.97818" lon="3.05204">
        <ele>160</ele>
        <time>2013-09-22T14:12:05Z</time>
      </trkpt>
      <trkpt lat="47.97799" lon="3.05247">
        <ele>161</ele>
        <time>2013-09-22T14:12:07Z</time>
      </trkpt>
      <trkpt lat="47.9779" lon="3.05293">
        <ele>162</ele>
        <time>2013-09-22T14:12:09Z</time>
      </trkpt>
      <trkpt lat="47.97788" lon="3.05348">
        <ele>163</ele>
        <time>2013-09-22T14:12:11Z</time>
      </trkpt>
      <trkpt lat="47.97787" lon="3.05404">
        <ele>163</ele>
        <time>2013-09-22T14:12:14Z</time>
      </trkpt>
      <trkpt lat="47.97772" lon="3.05455">
        <ele>163</ele>
        <time>2013-09-22T14:12:15Z</time>
      </trkpt>
      <trkpt lat="47.9776" lon="3.05483">
        <ele>163</ele>
        <time>2013-09-22T14:12:16Z</time>
      </trkpt>
      <trkpt lat="47.97746" lon="3.05512">
        <ele>162</ele>
        <time>2013-09-22T14:12:17Z</time>
      </trkpt>
      <trkpt lat="47.9773" lon="3.05541">
        <ele>162</ele>
        <time>2013-09-22T14:12:18Z</time>
      </trkpt>
      <trkpt lat="47.97712" lon="3.05571">
        <ele>162</ele>
        <time>2013-09-22T14:12:19Z</time>
      </trkpt>
      <trkpt lat="47.97694" lon="3.05599">
        <ele>161</ele>
        <time>2013-09-22T14:12:21Z</time>
      </trkpt>
      <trkpt lat="47.97677" lon="3.05628">
        <ele>161</ele>
        <time>2013-09-22T14:12:21Z</time>
      </trkpt>
      <trkpt lat="47.97659" lon="3.05655">
        <ele>161</ele>
        <time>2013-09-22T14:12:22Z</time>
      </trkpt>
      <trkpt lat="47.97639" lon="3.05676">
        <ele>161</ele>
        <time>2013-09-22T14:12:23Z</time>
      </trkpt>
      <trkpt lat="47.97619" lon="3.05696">
        <ele>161</ele>
        <time>2013-09-22T14:12:24Z</time>
      </trkpt>
      <trkpt lat="47.97599" lon="3.05715">
        <ele>161</ele>
        <time>2013-09-22T14:12:25Z</time>
      </trkpt>
      <trkpt lat="47.97579" lon="3.05733">
        <ele>160</ele>
        <time>2013-09-22T14:12:27Z</time>
      </trkpt>
      <trkpt lat="47.97562" lon="3.0575">
        <ele>159</ele>
        <time>2013-09-22T14:12:28Z</time>
      </trkpt>
      <trkpt lat="47.97546" lon="3.05765">
        <ele>159</ele>
        <time>2013-09-22T14:12:28Z</time>
      </trkpt>
      <trkpt lat="47.97518" lon="3.058">
        <ele>158</ele>
        <time>2013-09-22T14:12:30Z</time>
      </trkpt>
      <trkpt lat="47.97494" lon="3.05855">
        <ele>157</ele>
        <time>2013-09-22T14:12:32Z</time>
      </trkpt>
      <trkpt lat="47.97482" lon="3.05883">
        <ele>157</ele>
        <time>2013-09-22T14:12:34Z</time>
      </trkpt>
      <trkpt lat="47.97469" lon="3.05911">
        <ele>157</ele>
        <time>2013-09-22T14:12:34Z</time>
      </trkpt>
      <trkpt lat="47.97458" lon="3.05938">
        <ele>157</ele>
        <time>2013-09-22T14:12:35Z</time>
      </trkpt>
      <trkpt lat="47.97447" lon="3.05962">
        <ele>158</ele>
        <time>2013-09-22T14:12:36Z</time>
      </trkpt>
      <trkpt lat="47.9743" lon="3.06006">
        <ele>159</ele>
        <time>2013-09-22T14:12:38Z</time>
      </trkpt>
      <trkpt lat="47.97423" lon="3.06054">
        <ele>160</ele>
        <time>2013-09-22T14:12:40Z</time>
      </trkpt>
      <trkpt lat="47.97431" lon="3.06107">
        <ele>161</ele>
        <time>2013-09-22T14:12:42Z</time>
      </trkpt>
      <trkpt lat="47.97437" lon="3.06136">
        <ele>161</ele>
        <time>2013-09-22T14:12:43Z</time>
      </trkpt>
      <trkpt lat="47.97443" lon="3.06164">
        <ele>161</ele>
        <time>2013-09-22T14:12:44Z</time>
      </trkpt>
      <trkpt lat="47.97449" lon="3.06191">
        <ele>162</ele>
        <time>2013-09-22T14:12:45Z</time>
      </trkpt>
      <trkpt lat="47.97458" lon="3.06239">
        <ele>161</ele>
        <time>2013-09-22T14:12:48Z</time>
      </trkpt>
      <trkpt lat="47.97463" lon="3.06283">
        <ele>161</ele>
        <time>2013-09-22T14:12:49Z</time>
      </trkpt>
      <trkpt lat="47.97451" lon="3.06329">
        <ele>160</ele>
        <time>2013-09-22T14:12:51Z</time>
      </trkpt>
      <trkpt lat="47.97425" lon="3.06368">
        <ele>160</ele>
        <time>2013-09-22T14:12:53Z</time>
      </trkpt>
      <trkpt lat="47.97407" lon="3.06385">
        <ele>159</ele>
        <time>2013-09-22T14:12:54Z</time>
      </trkpt>
      <trkpt lat="47.97388" lon="3.06403">
        <ele>160</ele>
        <time>2013-09-22T14:12:55Z</time>
      </trkpt>
      <trkpt lat="47.97368" lon="3.06421">
        <ele>160</ele>
        <time>2013-09-22T14:12:56Z</time>
      </trkpt>
      <trkpt lat="47.97349" lon="3.06439">
        <ele>161</ele>
        <time>2013-09-22T14:12:57Z</time>
      </trkpt>
      <trkpt lat="47.97331" lon="3.06458">
        <ele>161</ele>
        <time>2013-09-22T14:12:58Z</time>
      </trkpt>
      <trkpt lat="47.97312" lon="3.06478">
        <ele>162</ele>
        <time>2013-09-22T14:12:59Z</time>
      </trkpt>
      <trkpt lat="47.97293" lon="3.06499">
        <ele>162</ele>
        <time>2013-09-22T14:13:01Z</time>
      </trkpt>
      <trkpt lat="47.97274" lon="3.0652">
        <ele>162</ele>
        <time>2013-09-22T14:13:01Z</time>
      </trkpt>
      <trkpt lat="47.97256" lon="3.0654">
        <ele>163</ele>
        <time>2013-09-22T14:13:02Z</time>
      </trkpt>
      <trkpt lat="47.97239" lon="3.06562">
        <ele>163</ele>
        <time>2013-09-22T14:13:03Z</time>
      </trkpt>
      <trkpt lat="47.97222" lon="3.06586">
        <ele>164</ele>
        <time>2013-09-22T14:13:04Z</time>
      </trkpt>
      <trkpt lat="47.97206" lon="3.06612">
        <ele>164</ele>
        <time>2013-09-22T14:13:06Z</time>
      </trkpt>
      <trkpt lat="47.97191" lon="3.06639">
        <ele>165</ele>
        <time>2013-09-22T14:13:06Z</time>
      </trkpt>
      <trkpt lat="47.97176" lon="3.06665">
        <ele>165</ele>
        <time>2013-09-22T14:13:07Z</time>
      </trkpt>
      <trkpt lat="47.97161" lon="3.0669">
        <ele>165</ele>
        <time>2013-09-22T14:13:08Z</time>
      </trkpt>
      <trkpt lat="47.97135" lon="3.06736">
        <ele>165</ele>
        <time>2013-09-22T14:13:11Z</time>
      </trkpt>
      <trkpt lat="47.97121" lon="3.06757">
        <ele>165</ele>
        <time>2013-09-22T14:13:11Z</time>
      </trkpt>
      <trkpt lat="47.97109" lon="3.06778">
        <ele>164</ele>
        <time>2013-09-22T14:13:12Z</time>
      </trkpt>
      <trkpt lat="47.97096" lon="3.06797">
        <ele>163</ele>
        <time>2013-09-22T14:13:13Z</time>
      </trkpt>
      <trkpt lat="47.97081" lon="3.06814">
        <ele>163</ele>
        <time>2013-09-22T14:13:14Z</time>
      </trkpt>
      <trkpt lat="47.97066" lon="3.06831">
        <ele>162</ele>
        <time>2013-09-22T14:13:15Z</time>
      </trkpt>
      <trkpt lat="47.97051" lon="3.06846">
        <ele>160</ele>
        <time>2013-09-22T14:13:16Z</time>
      </trkpt>
      <trkpt lat="47.97035" lon="3.06859">
        <ele>159</ele>
        <time>2013-09-22T14:13:17Z</time>
      </trkpt>
      <trkpt lat="47.97019" lon="3.0687">
        <ele>158</ele>
        <time>2013-09-22T14:13:18Z</time>
      </trkpt>
      <trkpt lat="47.96986" lon="3.0689">
        <ele>156</ele>
        <time>2013-09-22T14:13:20Z</time>
      </trkpt>
      <trkpt lat="47.96955" lon="3.0691">
        <ele>155</ele>
        <time>2013-09-22T14:13:22Z</time>
      </trkpt>
      <trkpt lat="47.96931" lon="3.06937">
        <ele>154</ele>
        <time>2013-09-22T14:13:24Z</time>
      </trkpt>
      <trkpt lat="47.96912" lon="3.06969">
        <ele>156</ele>
        <time>2013-09-22T14:13:26Z</time>
      </trkpt>
      <trkpt lat="47.96901" lon="3.06997">
        <ele>158</ele>
        <time>2013-09-22T14:13:29Z</time>
      </trkpt>
      <trkpt lat="47.96891" lon="3.0702">
        <ele>160</ele>
        <time>2013-09-22T14:13:31Z</time>
      </trkpt>
      <trkpt lat="47.96868" lon="3.06997">
        <ele>159</ele>
        <time>2013-09-22T14:13:39Z</time>
      </trkpt>
      <trkpt lat="47.9685" lon="3.06978">
        <ele>160</ele>
        <time>2013-09-22T14:13:42Z</time>
      </trkpt>
      <trkpt lat="47.96832" lon="3.06959">
        <ele>160</ele>
        <time>2013-09-22T14:13:43Z</time>
      </trkpt>
      <trkpt lat="47.96814" lon="3.06937">
        <ele>160</ele>
        <time>2013-09-22T14:13:45Z</time>
      </trkpt>
      <trkpt lat="47.96798" lon="3.06918">
        <ele>160</ele>
        <time>2013-09-22T14:13:47Z</time>
      </trkpt>
      <trkpt lat="47.9678" lon="3.06901">
        <ele>160</ele>
        <time>2013-09-22T14:13:49Z</time>
      </trkpt>
      <trkpt lat="47.9675" lon="3.06884">
        <ele>161</ele>
        <time>2013-09-22T14:13:52Z</time>
      </trkpt>
      <trkpt lat="47.96717" lon="3.06865">
        <ele>162</ele>
        <time>2013-09-22T14:13:53Z</time>
      </trkpt>
      <trkpt lat="47.96699" lon="3.06853">
        <ele>162</ele>
        <time>2013-09-22T14:13:54Z</time>
      </trkpt>
      <trkpt lat="47.9668" lon="3.06839">
        <ele>161</ele>
        <time>2013-09-22T14:13:56Z</time>
      </trkpt>
      <trkpt lat="47.9666" lon="3.06825">
        <ele>161</ele>
        <time>2013-09-22T14:13:56Z</time>
      </trkpt>
      <trkpt lat="47.9664" lon="3.06809">
        <ele>160</ele>
        <time>2013-09-22T14:13:57Z</time>
      </trkpt>
      <trkpt lat="47.96618" lon="3.06794">
        <ele>160</ele>
        <time>2013-09-22T14:13:58Z</time>
      </trkpt>
      <trkpt lat="47.96594" lon="3.0678">
        <ele>161</ele>
        <time>2013-09-22T14:13:59Z</time>
      </trkpt>
      <trkpt lat="47.9657" lon="3.06766">
        <ele>161</ele>
        <time>2013-09-22T14:14:00Z</time>
      </trkpt>
      <trkpt lat="47.96547" lon="3.06752">
        <ele>161</ele>
        <time>2013-09-22T14:14:01Z</time>
      </trkpt>
      <trkpt lat="47.96522" lon="3.06738">
        <ele>162</ele>
        <time>2013-09-22T14:14:02Z</time>
      </trkpt>
      <trkpt lat="47.96498" lon="3.06724">
        <ele>162</ele>
        <time>2013-09-22T14:14:03Z</time>
      </trkpt>
      <trkpt lat="47.96474" lon="3.06709">
        <ele>163</ele>
        <time>2013-09-22T14:14:04Z</time>
      </trkpt>
      <trkpt lat="47.9645" lon="3.06693">
        <ele>163</ele>
        <time>2013-09-22T14:14:05Z</time>
      </trkpt>
      <trkpt lat="47.96427" lon="3.06676">
        <ele>163</ele>
        <time>2013-09-22T14:14:06Z</time>
      </trkpt>
      <trkpt lat="47.96405" lon="3.06654">
        <ele>162</ele>
        <time>2013-09-22T14:14:07Z</time>
      </trkpt>
      <trkpt lat="47.96383" lon="3.06631">
        <ele>162</ele>
        <time>2013-09-22T14:14:08Z</time>
      </trkpt>
      <trkpt lat="47.9636" lon="3.06608">
        <ele>161</ele>
        <time>2013-09-22T14:14:09Z</time>
      </trkpt>
      <trkpt lat="47.96338" lon="3.06583">
        <ele>161</ele>
        <time>2013-09-22T14:14:10Z</time>
      </trkpt>
      <trkpt lat="47.96316" lon="3.06561">
        <ele>161</ele>
        <time>2013-09-22T14:14:11Z</time>
      </trkpt>
      <trkpt lat="47.96294" lon="3.06537">
        <ele>160</ele>
        <time>2013-09-22T14:14:12Z</time>
      </trkpt>
      <trkpt lat="47.96271" lon="3.06515">
        <ele>159</ele>
        <time>2013-09-22T14:14:13Z</time>
      </trkpt>
      <trkpt lat="47.96248" lon="3.06493">
        <ele>158</ele>
        <time>2013-09-22T14:14:14Z</time>
      </trkpt>
      <trkpt lat="47.96224" lon="3.06475">
        <ele>157</ele>
        <time>2013-09-22T14:14:15Z</time>
      </trkpt>
      <trkpt lat="47.96199" lon="3.06458">
        <ele>157</ele>
        <time>2013-09-22T14:14:16Z</time>
      </trkpt>
      <trkpt lat="47.96174" lon="3.06442">
        <ele>157</ele>
        <time>2013-09-22T14:14:17Z</time>
      </trkpt>
      <trkpt lat="47.96149" lon="3.06425">
        <ele>157</ele>
        <time>2013-09-22T14:14:18Z</time>
      </trkpt>
      <trkpt lat="47.96126" lon="3.06407">
        <ele>157</ele>
        <time>2013-09-22T14:14:19Z</time>
      </trkpt>
      <trkpt lat="47.96103" lon="3.06388">
        <ele>157</ele>
        <time>2013-09-22T14:14:20Z</time>
      </trkpt>
      <trkpt lat="47.96082" lon="3.06368">
        <ele>157</ele>
        <time>2013-09-22T14:14:21Z</time>
      </trkpt>
      <trkpt lat="47.96061" lon="3.06349">
        <ele>156</ele>
        <time>2013-09-22T14:14:22Z</time>
      </trkpt>
      <trkpt lat="47.9604" lon="3.06331">
        <ele>155</ele>
        <time>2013-09-22T14:14:23Z</time>
      </trkpt>
      <trkpt lat="47.96017" lon="3.06315">
        <ele>154</ele>
        <time>2013-09-22T14:14:24Z</time>
      </trkpt>
      <trkpt lat="47.95993" lon="3.06304">
        <ele>153</ele>
        <time>2013-09-22T14:14:25Z</time>
      </trkpt>
      <trkpt lat="47.95969" lon="3.06297">
        <ele>153</ele>
        <time>2013-09-22T14:14:26Z</time>
      </trkpt>
      <trkpt lat="47.95945" lon="3.06293">
        <ele>154</ele>
        <time>2013-09-22T14:14:27Z</time>
      </trkpt>
      <trkpt lat="47.95922" lon="3.06292">
        <ele>155</ele>
        <time>2013-09-22T14:14:28Z</time>
      </trkpt>
      <trkpt lat="47.95899" lon="3.06292">
        <ele>156</ele>
        <time>2013-09-22T14:14:29Z</time>
      </trkpt>
      <trkpt lat="47.95877" lon="3.0629">
        <ele>158</ele>
        <time>2013-09-22T14:14:30Z</time>
      </trkpt>
      <trkpt lat="47.95855" lon="3.06289">
        <ele>158</ele>
        <time>2013-09-22T14:14:31Z</time>
      </trkpt>
      <trkpt lat="47.95834" lon="3.06288">
        <ele>159</ele>
        <time>2013-09-22T14:14:33Z</time>
      </trkpt>
      <trkpt lat="47.95812" lon="3.06289">
        <ele>159</ele>
        <time>2013-09-22T14:14:33Z</time>
      </trkpt>
      <trkpt lat="47.9579" lon="3.06291">
        <ele>159</ele>
        <time>2013-09-22T14:14:34Z</time>
      </trkpt>
      <trkpt lat="47.95769" lon="3.06293">
        <ele>159</ele>
        <time>2013-09-22T14:14:35Z</time>
      </trkpt>
      <trkpt lat="47.95748" lon="3.06295">
        <ele>157</ele>
        <time>2013-09-22T14:14:36Z</time>
      </trkpt>
      <trkpt lat="47.95727" lon="3.06294">
        <ele>157</ele>
        <time>2013-09-22T14:14:37Z</time>
      </trkpt>
      <trkpt lat="47.95704" lon="3.06292">
        <ele>156</ele>
        <time>2013-09-22T14:14:38Z</time>
      </trkpt>
      <trkpt lat="47.95682" lon="3.06287">
        <ele>157</ele>
        <time>2013-09-22T14:14:39Z</time>
      </trkpt>
      <trkpt lat="47.95659" lon="3.0628">
        <ele>157</ele>
        <time>2013-09-22T14:14:40Z</time>
      </trkpt>
      <trkpt lat="47.95637" lon="3.06269">
        <ele>157</ele>
        <time>2013-09-22T14:14:41Z</time>
      </trkpt>
      <trkpt lat="47.95615" lon="3.06256">
        <ele>156</ele>
        <time>2013-09-22T14:14:42Z</time>
      </trkpt>
      <trkpt lat="47.95596" lon="3.0624">
        <ele>153</ele>
        <time>2013-09-22T14:14:43Z</time>
      </trkpt>
      <trkpt lat="47.95559" lon="3.062">
        <ele>149</ele>
        <time>2013-09-22T14:14:45Z</time>
      </trkpt>
      <trkpt lat="47.95542" lon="3.06178">
        <ele>147</ele>
        <time>2013-09-22T14:14:46Z</time>
      </trkpt>
      <trkpt lat="47.95525" lon="3.06156">
        <ele>145</ele>
        <time>2013-09-22T14:14:47Z</time>
      </trkpt>
      <trkpt lat="47.95507" lon="3.06134">
        <ele>144</ele>
        <time>2013-09-22T14:14:48Z</time>
      </trkpt>
      <trkpt lat="47.9549" lon="3.06111">
        <ele>143</ele>
        <time>2013-09-22T14:14:49Z</time>
      </trkpt>
      <trkpt lat="47.95472" lon="3.06089">
        <ele>142</ele>
        <time>2013-09-22T14:14:51Z</time>
      </trkpt>
      <trkpt lat="47.95455" lon="3.06067">
        <ele>142</ele>
        <time>2013-09-22T14:14:51Z</time>
      </trkpt>
      <trkpt lat="47.95437" lon="3.06045">
        <ele>141</ele>
        <time>2013-09-22T14:14:52Z</time>
      </trkpt>
      <trkpt lat="47.9542" lon="3.06025">
        <ele>142</ele>
        <time>2013-09-22T14:14:53Z</time>
      </trkpt>
      <trkpt lat="47.95404" lon="3.06006">
        <ele>142</ele>
        <time>2013-09-22T14:14:54Z</time>
      </trkpt>
      <trkpt lat="47.95387" lon="3.05989">
        <ele>142</ele>
        <time>2013-09-22T14:14:56Z</time>
      </trkpt>
      <trkpt lat="47.95371" lon="3.05971">
        <ele>142</ele>
        <time>2013-09-22T14:14:56Z</time>
      </trkpt>
      <trkpt lat="47.95356" lon="3.05954">
        <ele>142</ele>
        <time>2013-09-22T14:14:57Z</time>
      </trkpt>
      <trkpt lat="47.9534" lon="3.05938">
        <ele>142</ele>
        <time>2013-09-22T14:14:58Z</time>
      </trkpt>
      <trkpt lat="47.95323" lon="3.05922">
        <ele>142</ele>
        <time>2013-09-22T14:15:00Z</time>
      </trkpt>
      <trkpt lat="47.95306" lon="3.0591">
        <ele>142</ele>
        <time>2013-09-22T14:15:01Z</time>
      </trkpt>
      <trkpt lat="47.95289" lon="3.05899">
        <ele>143</ele>
        <time>2013-09-22T14:15:01Z</time>
      </trkpt>
      <trkpt lat="47.95271" lon="3.05888">
        <ele>143</ele>
        <time>2013-09-22T14:15:02Z</time>
      </trkpt>
      <trkpt lat="47.95253" lon="3.05879">
        <ele>143</ele>
        <time>2013-09-22T14:15:03Z</time>
      </trkpt>
      <trkpt lat="47.95236" lon="3.0587">
        <ele>144</ele>
        <time>2013-09-22T14:15:04Z</time>
      </trkpt>
      <trkpt lat="47.95219" lon="3.05861">
        <ele>144</ele>
        <time>2013-09-22T14:15:05Z</time>
      </trkpt>
      <trkpt lat="47.95202" lon="3.0585">
        <ele>144</ele>
        <time>2013-09-22T14:15:06Z</time>
      </trkpt>
      <trkpt lat="47.95186" lon="3.05837">
        <ele>143</ele>
        <time>2013-09-22T14:15:07Z</time>
      </trkpt>
      <trkpt lat="47.9517" lon="3.05821">
        <ele>143</ele>
        <time>2013-09-22T14:15:08Z</time>
      </trkpt>
      <trkpt lat="47.95155" lon="3.05803">
        <ele>142</ele>
        <time>2013-09-22T14:15:09Z</time>
      </trkpt>
      <trkpt lat="47.9514" lon="3.05784">
        <ele>144</ele>
        <time>2013-09-22T14:15:10Z</time>
      </trkpt>
      <trkpt lat="47.95125" lon="3.05764">
        <ele>145</ele>
        <time>2013-09-22T14:15:11Z</time>
      </trkpt>
      <trkpt lat="47.95111" lon="3.05743">
        <ele>145</ele>
        <time>2013-09-22T14:15:12Z</time>
      </trkpt>
      <trkpt lat="47.95096" lon="3.05722">
        <ele>146</ele>
        <time>2013-09-22T14:15:13Z</time>
      </trkpt>
      <trkpt lat="47.95081" lon="3.057">
        <ele>146</ele>
        <time>2013-09-22T14:15:14Z</time>
      </trkpt>
      <trkpt lat="47.95066" lon="3.05678">
        <ele>146</ele>
        <time>2013-09-22T14:15:15Z</time>
      </trkpt>
      <trkpt lat="47.95034" lon="3.05633">
        <ele>147</ele>
        <time>2013-09-22T14:15:18Z</time>
      </trkpt>
      <trkpt lat="47.95018" lon="3.05609">
        <ele>147</ele>
        <time>2013-09-22T14:15:19Z</time>
      </trkpt>
      <trkpt lat="47.95001" lon="3.05586">
        <ele>147</ele>
        <time>2013-09-22T14:15:19Z</time>
      </trkpt>
      <trkpt lat="47.94984" lon="3.05561">
        <ele>147</ele>
        <time>2013-09-22T14:15:20Z</time>
      </trkpt>
      <trkpt lat="47.94968" lon="3.05538">
        <ele>147</ele>
        <time>2013-09-22T14:15:21Z</time>
      </trkpt>
      <trkpt lat="47.94951" lon="3.05515">
        <ele>146</ele>
        <time>2013-09-22T14:15:23Z</time>
      </trkpt>
      <trkpt lat="47.94934" lon="3.05493">
        <ele>146</ele>
        <time>2013-09-22T14:15:23Z</time>
      </trkpt>
      <trkpt lat="47.94916" lon="3.05472">
        <ele>145</ele>
        <time>2013-09-22T14:15:24Z</time>
      </trkpt>
      <trkpt lat="47.9488" lon="3.05433">
        <ele>144</ele>
        <time>2013-09-22T14:15:26Z</time>
      </trkpt>
      <trkpt lat="47.94861" lon="3.05414">
        <ele>143</ele>
        <time>2013-09-22T14:15:28Z</time>
      </trkpt>
      <trkpt lat="47.94843" lon="3.05395">
        <ele>142</ele>
        <time>2013-09-22T14:15:28Z</time>
      </trkpt>
      <trkpt lat="47.94825" lon="3.05377">
        <ele>141</ele>
        <time>2013-09-22T14:15:29Z</time>
      </trkpt>
      <trkpt lat="47.94807" lon="3.05359">
        <ele>140</ele>
        <time>2013-09-22T14:15:30Z</time>
      </trkpt>
      <trkpt lat="47.94789" lon="3.05342">
        <ele>139</ele>
        <time>2013-09-22T14:15:32Z</time>
      </trkpt>
      <trkpt lat="47.94769" lon="3.05327">
        <ele>137</ele>
        <time>2013-09-22T14:15:32Z</time>
      </trkpt>
      <trkpt lat="47.94749" lon="3.05316">
        <ele>137</ele>
        <time>2013-09-22T14:15:33Z</time>
      </trkpt>
      <trkpt lat="47.94729" lon="3.05306">
        <ele>137</ele>
        <time>2013-09-22T14:15:34Z</time>
      </trkpt>
      <trkpt lat="47.94708" lon="3.053">
        <ele>136</ele>
        <time>2013-09-22T14:15:35Z</time>
      </trkpt>
      <trkpt lat="47.94687" lon="3.05295">
        <ele>137</ele>
        <time>2013-09-22T14:15:36Z</time>
      </trkpt>
      <trkpt lat="47.94666" lon="3.05295">
        <ele>137</ele>
        <time>2013-09-22T14:15:37Z</time>
      </trkpt>
      <trkpt lat="47.94646" lon="3.05294">
        <ele>137</ele>
        <time>2013-09-22T14:15:38Z</time>
      </trkpt>
      <trkpt lat="47.94626" lon="3.05293">
        <ele>136</ele>
        <time>2013-09-22T14:15:39Z</time>
      </trkpt>
      <trkpt lat="47.94607" lon="3.05292">
        <ele>136</ele>
        <time>2013-09-22T14:15:41Z</time>
      </trkpt>
      <trkpt lat="47.94588" lon="3.05291">
        <ele>136</ele>
        <time>2013-09-22T14:15:41Z</time>
      </trkpt>
      <trkpt lat="47.9457" lon="3.05291">
        <ele>135</ele>
        <time>2013-09-22T14:15:42Z</time>
      </trkpt>
      <trkpt lat="47.94552" lon="3.05292">
        <ele>135</ele>
        <time>2013-09-22T14:15:43Z</time>
      </trkpt>
      <trkpt lat="47.94533" lon="3.05294">
        <ele>134</ele>
        <time>2013-09-22T14:15:44Z</time>
      </trkpt>
      <trkpt lat="47.94515" lon="3.05297">
        <ele>135</ele>
        <time>2013-09-22T14:15:46Z</time>
      </trkpt>
      <trkpt lat="47.94497" lon="3.053">
        <ele>135</ele>
        <time>2013-09-22T14:15:46Z</time>
      </trkpt>
      <trkpt lat="47.94463" lon="3.05307">
        <ele>137</ele>
        <time>2013-09-22T14:15:48Z</time>
      </trkpt>
      <trkpt lat="47.94432" lon="3.05316">
        <ele>137</ele>
        <time>2013-09-22T14:15:50Z</time>
      </trkpt>
      <trkpt lat="47.94405" lon="3.05329">
        <ele>136</ele>
        <time>2013-09-22T14:15:52Z</time>
      </trkpt>
      <trkpt lat="47.94381" lon="3.05344">
        <ele>134</ele>
        <time>2013-09-22T14:15:54Z</time>
      </trkpt>
      <trkpt lat="47.94358" lon="3.05359">
        <ele>134</ele>
        <time>2013-09-22T14:15:56Z</time>
      </trkpt>
      <trkpt lat="47.94337" lon="3.05375">
        <ele>133</ele>
        <time>2013-09-22T14:15:58Z</time>
      </trkpt>
      <trkpt lat="47.94318" lon="3.05385">
        <ele>133</ele>
        <time>2013-09-22T14:16:00Z</time>
      </trkpt>
      <trkpt lat="47.94296" lon="3.05396">
        <ele>132</ele>
        <time>2013-09-22T14:16:03Z</time>
      </trkpt>
      <trkpt lat="47.94276" lon="3.05394">
        <ele>129</ele>
        <time>2013-09-22T14:16:09Z</time>
      </trkpt>
      <trkpt lat="47.94281" lon="3.05354">
        <ele>128</ele>
        <time>2013-09-22T14:16:16Z</time>
      </trkpt>
      <trkpt lat="47.94288" lon="3.05323">
        <ele>127</ele>
        <time>2013-09-22T14:16:18Z</time>
      </trkpt>
      <trkpt lat="47.94296" lon="3.0529">
        <ele>127</ele>
        <time>2013-09-22T14:16:20Z</time>
      </trkpt>
      <trkpt lat="47.94302" lon="3.05257">
        <ele>127</ele>
        <time>2013-09-22T14:16:22Z</time>
      </trkpt>
      <trkpt lat="47.94308" lon="3.05224">
        <ele>127</ele>
        <time>2013-09-22T14:16:24Z</time>
      </trkpt>
      <trkpt lat="47.94315" lon="3.05192">
        <ele>127</ele>
        <time>2013-09-22T14:16:26Z</time>
      </trkpt>
      <trkpt lat="47.94321" lon="3.05158">
        <ele>127</ele>
        <time>2013-09-22T14:16:28Z</time>
      </trkpt>
      <trkpt lat="47.94328" lon="3.05122">
        <ele>127</ele>
        <time>2013-09-22T14:16:30Z</time>
      </trkpt>
      <trkpt lat="47.94334" lon="3.05087">
        <ele>127</ele>
        <time>2013-09-22T14:16:32Z</time>
      </trkpt>
      <trkpt lat="47.9434" lon="3.05055">
        <ele>128</ele>
        <time>2013-09-22T14:16:34Z</time>
      </trkpt>
      <trkpt lat="47.94346" lon="3.05024">
        <ele>128</ele>
        <time>2013-09-22T14:16:36Z</time>
      </trkpt>
      <trkpt lat="47.94353" lon="3.0499">
        <ele>129</ele>
        <time>2013-09-22T14:16:38Z</time>
      </trkpt>
      <trkpt lat="47.9436" lon="3.04954">
        <ele>129</ele>
        <time>2013-09-22T14:16:40Z</time>
      </trkpt>
      <trkpt lat="47.94367" lon="3.04919">
        <ele>130</ele>
        <time>2013-09-22T14:16:42Z</time>
      </trkpt>
      <trkpt lat="47.94373" lon="3.04887">
        <ele>131</ele>
        <time>2013-09-22T14:16:44Z</time>
      </trkpt>
      <trkpt lat="47.94379" lon="3.04854">
        <ele>132</ele>
        <time>2013-09-22T14:16:46Z</time>
      </trkpt>
      <trkpt lat="47.94386" lon="3.04821">
        <ele>133</ele>
        <time>2013-09-22T14:16:48Z</time>
      </trkpt>
      <trkpt lat="47.94391" lon="3.04786">
        <ele>133</ele>
        <time>2013-09-22T14:16:50Z</time>
      </trkpt>
      <trkpt lat="47.94398" lon="3.04752">
        <ele>133</ele>
        <time>2013-09-22T14:16:52Z</time>
      </trkpt>
      <trkpt lat="47.94402" lon="3.04719">
        <ele>133</ele>
        <time>2013-09-22T14:16:54Z</time>
      </trkpt>
      <trkpt lat="47.94406" lon="3.04688">
        <ele>133</ele>
        <time>2013-09-22T14:16:56Z</time>
      </trkpt>
      <trkpt lat="47.94409" lon="3.04645">
        <ele>134</ele>
        <time>2013-09-22T14:17:00Z</time>
      </trkpt>
      <trkpt lat="47.94385" lon="3.04628">
        <ele>133</ele>
        <time>2013-09-22T14:17:04Z</time>
      </trkpt>
      <trkpt lat="47.94359" lon="3.04614">
        <ele>132</ele>
        <time>2013-09-22T14:17:05Z</time>
      </trkpt>
      <trkpt lat="47.94331" lon="3.04599">
        <ele>130</ele>
        <time>2013-09-22T14:17:07Z</time>
      </trkpt>
      <trkpt lat="47.94299" lon="3.04582">
        <ele>129</ele>
        <time>2013-09-22T14:17:09Z</time>
      </trkpt>
      <trkpt lat="47.94268" lon="3.04566">
        <ele>129</ele>
        <time>2013-09-22T14:17:11Z</time>
      </trkpt>
      <trkpt lat="47.9425" lon="3.04556">
        <ele>128</ele>
        <time>2013-09-22T14:17:12Z</time>
      </trkpt>
      <trkpt lat="47.94232" lon="3.04547">
        <ele>128</ele>
        <time>2013-09-22T14:17:13Z</time>
      </trkpt>
      <trkpt lat="47.94214" lon="3.04537">
        <ele>129</ele>
        <time>2013-09-22T14:17:14Z</time>
      </trkpt>
      <trkpt lat="47.94195" lon="3.04527">
        <ele>129</ele>
        <time>2013-09-22T14:17:15Z</time>
      </trkpt>
      <trkpt lat="47.94177" lon="3.04517">
        <ele>128</ele>
        <time>2013-09-22T14:17:17Z</time>
      </trkpt>
      <trkpt lat="47.9416" lon="3.04507">
        <ele>126</ele>
        <time>2013-09-22T14:17:18Z</time>
      </trkpt>
      <trkpt lat="47.94141" lon="3.04497">
        <ele>126</ele>
        <time>2013-09-22T14:17:18Z</time>
      </trkpt>
      <trkpt lat="47.94122" lon="3.04486">
        <ele>125</ele>
        <time>2013-09-22T14:17:19Z</time>
      </trkpt>
      <trkpt lat="47.94103" lon="3.04476">
        <ele>124</ele>
        <time>2013-09-22T14:17:20Z</time>
      </trkpt>
      <trkpt lat="47.94083" lon="3.04466">
        <ele>124</ele>
        <time>2013-09-22T14:17:22Z</time>
      </trkpt>
      <trkpt lat="47.94064" lon="3.04456">
        <ele>124</ele>
        <time>2013-09-22T14:17:22Z</time>
      </trkpt>
      <trkpt lat="47.94046" lon="3.04446">
        <ele>123</ele>
        <time>2013-09-22T14:17:23Z</time>
      </trkpt>
      <trkpt lat="47.94028" lon="3.04436">
        <ele>124</ele>
        <time>2013-09-22T14:17:24Z</time>
      </trkpt>
      <trkpt lat="47.94011" lon="3.04429">
        <ele>124</ele>
        <time>2013-09-22T14:17:25Z</time>
      </trkpt>
      <trkpt lat="47.93974" lon="3.04424">
        <ele>124</ele>
        <time>2013-09-22T14:17:27Z</time>
      </trkpt>
      <trkpt lat="47.93955" lon="3.04424">
        <ele>125</ele>
        <time>2013-09-22T14:17:28Z</time>
      </trkpt>
      <trkpt lat="47.93936" lon="3.04426">
        <ele>124</ele>
        <time>2013-09-22T14:17:29Z</time>
      </trkpt>
      <trkpt lat="47.93918" lon="3.04427">
        <ele>123</ele>
        <time>2013-09-22T14:17:30Z</time>
      </trkpt>
      <trkpt lat="47.93898" lon="3.04428">
        <ele>123</ele>
        <time>2013-09-22T14:17:31Z</time>
      </trkpt>
      <trkpt lat="47.93879" lon="3.0443">
        <ele>122</ele>
        <time>2013-09-22T14:17:32Z</time>
      </trkpt>
      <trkpt lat="47.93859" lon="3.04431">
        <ele>122</ele>
        <time>2013-09-22T14:17:33Z</time>
      </trkpt>
      <trkpt lat="47.9384" lon="3.04431">
        <ele>122</ele>
        <time>2013-09-22T14:17:34Z</time>
      </trkpt>
      <trkpt lat="47.93821" lon="3.04431">
        <ele>121</ele>
        <time>2013-09-22T14:17:35Z</time>
      </trkpt>
      <trkpt lat="47.93802" lon="3.0443">
        <ele>121</ele>
        <time>2013-09-22T14:17:36Z</time>
      </trkpt>
      <trkpt lat="47.93783" lon="3.04427">
        <ele>122</ele>
        <time>2013-09-22T14:17:37Z</time>
      </trkpt>
      <trkpt lat="47.93765" lon="3.04423">
        <ele>121</ele>
        <time>2013-09-22T14:17:38Z</time>
      </trkpt>
      <trkpt lat="47.93747" lon="3.04418">
        <ele>122</ele>
        <time>2013-09-22T14:17:40Z</time>
      </trkpt>
      <trkpt lat="47.93729" lon="3.04412">
        <ele>123</ele>
        <time>2013-09-22T14:17:40Z</time>
      </trkpt>
      <trkpt lat="47.93694" lon="3.044">
        <ele>123</ele>
        <time>2013-09-22T14:17:42Z</time>
      </trkpt>
      <trkpt lat="47.9366" lon="3.04389">
        <ele>122</ele>
        <time>2013-09-22T14:17:44Z</time>
      </trkpt>
      <trkpt lat="47.93629" lon="3.04379">
        <ele>123</ele>
        <time>2013-09-22T14:17:46Z</time>
      </trkpt>
      <trkpt lat="47.936" lon="3.04369">
        <ele>123</ele>
        <time>2013-09-22T14:17:48Z</time>
      </trkpt>
      <trkpt lat="47.93578" lon="3.04361">
        <ele>123</ele>
        <time>2013-09-22T14:17:51Z</time>
      </trkpt>
      <trkpt lat="47.93567" lon="3.04335">
        <ele>128</ele>
        <time>2013-09-22T14:17:54Z</time>
      </trkpt>
      <trkpt lat="47.93565" lon="3.04304">
        <ele>128</ele>
        <time>2013-09-22T14:17:56Z</time>
      </trkpt>
      <trkpt lat="47.93562" lon="3.04268">
        <ele>129</ele>
        <time>2013-09-22T14:17:58Z</time>
      </trkpt>
      <trkpt lat="47.93556" lon="3.04225">
        <ele>130</ele>
        <time>2013-09-22T14:18:00Z</time>
      </trkpt>
      <trkpt lat="47.93547" lon="3.04176">
        <ele>132</ele>
        <time>2013-09-22T14:18:02Z</time>
      </trkpt>
      <trkpt lat="47.93538" lon="3.04124">
        <ele>134</ele>
        <time>2013-09-22T14:18:04Z</time>
      </trkpt>
      <trkpt lat="47.93528" lon="3.04069">
        <ele>137</ele>
        <time>2013-09-22T14:18:06Z</time>
      </trkpt>
      <trkpt lat="47.93523" lon="3.04041">
        <ele>138</ele>
        <time>2013-09-22T14:18:07Z</time>
      </trkpt>
      <trkpt lat="47.93515" lon="3.04013">
        <ele>139</ele>
        <time>2013-09-22T14:18:08Z</time>
      </trkpt>
      <trkpt lat="47.93507" lon="3.03984">
        <ele>139</ele>
        <time>2013-09-22T14:18:09Z</time>
      </trkpt>
      <trkpt lat="47.93497" lon="3.03955">
        <ele>141</ele>
        <time>2013-09-22T14:18:10Z</time>
      </trkpt>
      <trkpt lat="47.93487" lon="3.03926">
        <ele>142</ele>
        <time>2013-09-22T14:18:12Z</time>
      </trkpt>
      <trkpt lat="47.93473" lon="3.03897">
        <ele>144</ele>
        <time>2013-09-22T14:18:12Z</time>
      </trkpt>
      <trkpt lat="47.93459" lon="3.03866">
        <ele>146</ele>
        <time>2013-09-22T14:18:13Z</time>
      </trkpt>
      <trkpt lat="47.93444" lon="3.03835">
        <ele>147</ele>
        <time>2013-09-22T14:18:14Z</time>
      </trkpt>
      <trkpt lat="47.93428" lon="3.038">
        <ele>149</ele>
        <time>2013-09-22T14:18:15Z</time>
      </trkpt>
      <trkpt lat="47.9341" lon="3.03761">
        <ele>151</ele>
        <time>2013-09-22T14:18:17Z</time>
      </trkpt>
      <trkpt lat="47.93392" lon="3.03723">
        <ele>153</ele>
        <time>2013-09-22T14:18:17Z</time>
      </trkpt>
      <trkpt lat="47.93374" lon="3.03685">
        <ele>155</ele>
        <time>2013-09-22T14:18:18Z</time>
      </trkpt>
      <trkpt lat="47.93356" lon="3.03647">
        <ele>157</ele>
        <time>2013-09-22T14:18:19Z</time>
      </trkpt>
      <trkpt lat="47.9334" lon="3.03611">
        <ele>158</ele>
        <time>2013-09-22T14:18:21Z</time>
      </trkpt>
      <trkpt lat="47.93323" lon="3.03576">
        <ele>160</ele>
        <time>2013-09-22T14:18:21Z</time>
      </trkpt>
      <trkpt lat="47.93308" lon="3.03543">
        <ele>162</ele>
        <time>2013-09-22T14:18:22Z</time>
      </trkpt>
      <trkpt lat="47.93293" lon="3.0351">
        <ele>163</ele>
        <time>2013-09-22T14:18:23Z</time>
      </trkpt>
      <trkpt lat="47.93277" lon="3.03477">
        <ele>165</ele>
        <time>2013-09-22T14:18:24Z</time>
      </trkpt>
      <trkpt lat="47.93263" lon="3.03446">
        <ele>167</ele>
        <time>2013-09-22T14:18:26Z</time>
      </trkpt>
      <trkpt lat="47.93249" lon="3.03417">
        <ele>168</ele>
        <time>2013-09-22T14:18:26Z</time>
      </trkpt>
      <trkpt lat="47.93237" lon="3.03389">
        <ele>169</ele>
        <time>2013-09-22T14:18:27Z</time>
      </trkpt>
      <trkpt lat="47.93224" lon="3.03361">
        <ele>171</ele>
        <time>2013-09-22T14:18:28Z</time>
      </trkpt>
      <trkpt lat="47.93213" lon="3.03339">
        <ele>172</ele>
        <time>2013-09-22T14:18:30Z</time>
      </trkpt>
      <trkpt lat="47.93202" lon="3.03314">
        <ele>173</ele>
        <time>2013-09-22T14:18:31Z</time>
      </trkpt>
      <trkpt lat="47.93191" lon="3.0329">
        <ele>173</ele>
        <time>2013-09-22T14:18:31Z</time>
      </trkpt>
      <trkpt lat="47.93181" lon="3.03266">
        <ele>173</ele>
        <time>2013-09-22T14:18:32Z</time>
      </trkpt>
      <trkpt lat="47.9316" lon="3.03224">
        <ele>173</ele>
        <time>2013-09-22T14:18:35Z</time>
      </trkpt>
      <trkpt lat="47.93134" lon="3.03192">
        <ele>172</ele>
        <time>2013-09-22T14:18:36Z</time>
      </trkpt>
      <trkpt lat="47.93102" lon="3.03167">
        <ele>172</ele>
        <time>2013-09-22T14:18:38Z</time>
      </trkpt>
      <trkpt lat="47.9307" lon="3.03144">
        <ele>171</ele>
        <time>2013-09-22T14:18:40Z</time>
      </trkpt>
      <trkpt lat="47.93042" lon="3.03113">
        <ele>170</ele>
        <time>2013-09-22T14:18:42Z</time>
      </trkpt>
      <trkpt lat="47.93028" lon="3.03092">
        <ele>169</ele>
        <time>2013-09-22T14:18:44Z</time>
      </trkpt>
      <trkpt lat="47.93013" lon="3.0307">
        <ele>168</ele>
        <time>2013-09-22T14:18:44Z</time>
      </trkpt>
      <trkpt lat="47.92996" lon="3.03046">
        <ele>166</ele>
        <time>2013-09-22T14:18:45Z</time>
      </trkpt>
      <trkpt lat="47.9298" lon="3.03023">
        <ele>165</ele>
        <time>2013-09-22T14:18:46Z</time>
      </trkpt>
      <trkpt lat="47.9296" lon="3.02996">
        <ele>164</ele>
        <time>2013-09-22T14:18:47Z</time>
      </trkpt>
      <trkpt lat="47.92942" lon="3.0297">
        <ele>162</ele>
        <time>2013-09-22T14:18:49Z</time>
      </trkpt>
      <trkpt lat="47.92925" lon="3.02945">
        <ele>161</ele>
        <time>2013-09-22T14:18:49Z</time>
      </trkpt>
      <trkpt lat="47.92907" lon="3.02921">
        <ele>159</ele>
        <time>2013-09-22T14:18:50Z</time>
      </trkpt>
      <trkpt lat="47.9289" lon="3.02897">
        <ele>158</ele>
        <time>2013-09-22T14:18:51Z</time>
      </trkpt>
      <trkpt lat="47.92872" lon="3.02872">
        <ele>156</ele>
        <time>2013-09-22T14:18:53Z</time>
      </trkpt>
      <trkpt lat="47.92855" lon="3.02848">
        <ele>155</ele>
        <time>2013-09-22T14:18:54Z</time>
      </trkpt>
      <trkpt lat="47.92838" lon="3.02824">
        <ele>155</ele>
        <time>2013-09-22T14:18:54Z</time>
      </trkpt>
      <trkpt lat="47.92821" lon="3.02801">
        <ele>155</ele>
        <time>2013-09-22T14:18:55Z</time>
      </trkpt>
      <trkpt lat="47.92804" lon="3.02777">
        <ele>155</ele>
        <time>2013-09-22T14:18:56Z</time>
      </trkpt>
      <trkpt lat="47.92787" lon="3.02753">
        <ele>155</ele>
        <time>2013-09-22T14:18:58Z</time>
      </trkpt>
      <trkpt lat="47.92769" lon="3.02728">
        <ele>155</ele>
        <time>2013-09-22T14:18:58Z</time>
      </trkpt>
      <trkpt lat="47.92752" lon="3.02703">
        <ele>156</ele>
        <time>2013-09-22T14:18:59Z</time>
      </trkpt>
      <trkpt lat="47.92734" lon="3.02677">
        <ele>156</ele>
        <time>2013-09-22T14:19:00Z</time>
      </trkpt>
      <trkpt lat="47.92715" lon="3.0265">
        <ele>156</ele>
        <time>2013-09-22T14:19:02Z</time>
      </trkpt>
      <trkpt lat="47.92696" lon="3.02623">
        <ele>157</ele>
        <time>2013-09-22T14:19:03Z</time>
      </trkpt>
      <trkpt lat="47.92677" lon="3.02597">
        <ele>159</ele>
        <time>2013-09-22T14:19:03Z</time>
      </trkpt>
      <trkpt lat="47.92658" lon="3.02571">
        <ele>160</ele>
        <time>2013-09-22T14:19:04Z</time>
      </trkpt>
      <trkpt lat="47.92641" lon="3.02546">
        <ele>161</ele>
        <time>2013-09-22T14:19:05Z</time>
      </trkpt>
      <trkpt lat="47.92625" lon="3.02522">
        <ele>162</ele>
        <time>2013-09-22T14:19:07Z</time>
      </trkpt>
      <trkpt lat="47.92609" lon="3.025">
        <ele>163</ele>
        <time>2013-09-22T14:19:07Z</time>
      </trkpt>
      <trkpt lat="47.92594" lon="3.0248">
        <ele>164</ele>
        <time>2013-09-22T14:19:08Z</time>
      </trkpt>
      <trkpt lat="47.92577" lon="3.02463">
        <ele>165</ele>
        <time>2013-09-22T14:19:09Z</time>
      </trkpt>
      <trkpt lat="47.9256" lon="3.02447">
        <ele>166</ele>
        <time>2013-09-22T14:19:10Z</time>
      </trkpt>
      <trkpt lat="47.9254" lon="3.02435">
        <ele>166</ele>
        <time>2013-09-22T14:19:12Z</time>
      </trkpt>
      <trkpt lat="47.92522" lon="3.02423">
        <ele>166</ele>
        <time>2013-09-22T14:19:12Z</time>
      </trkpt>
      <trkpt lat="47.92489" lon="3.024">
        <ele>166</ele>
        <time>2013-09-22T14:19:14Z</time>
      </trkpt>
      <trkpt lat="47.92472" lon="3.02388">
        <ele>167</ele>
        <time>2013-09-22T14:19:16Z</time>
      </trkpt>
      <trkpt lat="47.92454" lon="3.02375">
        <ele>168</ele>
        <time>2013-09-22T14:19:16Z</time>
      </trkpt>
      <trkpt lat="47.92436" lon="3.02363">
        <ele>168</ele>
        <time>2013-09-22T14:19:17Z</time>
      </trkpt>
      <trkpt lat="47.92398" lon="3.02336">
        <ele>170</ele>
        <time>2013-09-22T14:19:19Z</time>
      </trkpt>
      <trkpt lat="47.92382" lon="3.0232">
        <ele>170</ele>
        <time>2013-09-22T14:19:21Z</time>
      </trkpt>
      <trkpt lat="47.92351" lon="3.02285">
        <ele>171</ele>
        <time>2013-09-22T14:19:22Z</time>
      </trkpt>
      <trkpt lat="47.92335" lon="3.02267">
        <ele>171</ele>
        <time>2013-09-22T14:19:23Z</time>
      </trkpt>
      <trkpt lat="47.92308" lon="3.02235">
        <ele>173</ele>
        <time>2013-09-22T14:19:26Z</time>
      </trkpt>
      <trkpt lat="47.92281" lon="3.02205">
        <ele>174</ele>
        <time>2013-09-22T14:19:27Z</time>
      </trkpt>
      <trkpt lat="47.92254" lon="3.02176">
        <ele>175</ele>
        <time>2013-09-22T14:19:30Z</time>
      </trkpt>
      <trkpt lat="47.92239" lon="3.02161">
        <ele>175</ele>
        <time>2013-09-22T14:19:30Z</time>
      </trkpt>
      <trkpt lat="47.92223" lon="3.02144">
        <ele>175</ele>
        <time>2013-09-22T14:19:31Z</time>
      </trkpt>
      <trkpt lat="47.92207" lon="3.02128">
        <ele>176</ele>
        <time>2013-09-22T14:19:32Z</time>
      </trkpt>
      <trkpt lat="47.92189" lon="3.02111">
        <ele>177</ele>
        <time>2013-09-22T14:19:33Z</time>
      </trkpt>
      <trkpt lat="47.92173" lon="3.02097">
        <ele>177</ele>
        <time>2013-09-22T14:19:35Z</time>
      </trkpt>
      <trkpt lat="47.92146" lon="3.02064">
        <ele>179</ele>
        <time>2013-09-22T14:19:36Z</time>
      </trkpt>
      <trkpt lat="47.92127" lon="3.02021">
        <ele>180</ele>
        <time>2013-09-22T14:19:38Z</time>
      </trkpt>
      <trkpt lat="47.92113" lon="3.01976">
        <ele>180</ele>
        <time>2013-09-22T14:19:40Z</time>
      </trkpt>
      <trkpt lat="47.92101" lon="3.01938">
        <ele>180</ele>
        <time>2013-09-22T14:19:42Z</time>
      </trkpt>
      <trkpt lat="47.92091" lon="3.01908">
        <ele>179</ele>
        <time>2013-09-22T14:19:44Z</time>
      </trkpt>
      <trkpt lat="47.92082" lon="3.01881">
        <ele>180</ele>
        <time>2013-09-22T14:19:48Z</time>
      </trkpt>
      <trkpt lat="47.92061" lon="3.01898">
        <ele>179</ele>
        <time>2013-09-22T14:19:57Z</time>
      </trkpt>
      <trkpt lat="47.92043" lon="3.0192">
        <ele>180</ele>
        <time>2013-09-22T14:19:58Z</time>
      </trkpt>
      <trkpt lat="47.9202" lon="3.01946">
        <ele>181</ele>
        <time>2013-09-22T14:20:00Z</time>
      </trkpt>
      <trkpt lat="47.91994" lon="3.01978">
        <ele>181</ele>
        <time>2013-09-22T14:20:02Z</time>
      </trkpt>
      <trkpt lat="47.91968" lon="3.02012">
        <ele>182</ele>
        <time>2013-09-22T14:20:04Z</time>
      </trkpt>
      <trkpt lat="47.91952" lon="3.02035">
        <ele>182</ele>
        <time>2013-09-22T14:20:05Z</time>
      </trkpt>
      <trkpt lat="47.91936" lon="3.02056">
        <ele>182</ele>
        <time>2013-09-22T14:20:06Z</time>
      </trkpt>
      <trkpt lat="47.91922" lon="3.02078">
        <ele>182</ele>
        <time>2013-09-22T14:20:07Z</time>
      </trkpt>
      <trkpt lat="47.91906" lon="3.021">
        <ele>182</ele>
        <time>2013-09-22T14:20:08Z</time>
      </trkpt>
      <trkpt lat="47.91889" lon="3.02122">
        <ele>182</ele>
        <time>2013-09-22T14:20:09Z</time>
      </trkpt>
      <trkpt lat="47.91872" lon="3.02143">
        <ele>182</ele>
        <time>2013-09-22T14:20:11Z</time>
      </trkpt>
      <trkpt lat="47.91853" lon="3.02162">
        <ele>182</ele>
        <time>2013-09-22T14:20:12Z</time>
      </trkpt>
      <trkpt lat="47.91834" lon="3.02179">
        <ele>182</ele>
        <time>2013-09-22T14:20:12Z</time>
      </trkpt>
      <trkpt lat="47.91814" lon="3.02197">
        <ele>182</ele>
        <time>2013-09-22T14:20:13Z</time>
      </trkpt>
      <trkpt lat="47.91794" lon="3.02215">
        <ele>183</ele>
        <time>2013-09-22T14:20:14Z</time>
      </trkpt>
      <trkpt lat="47.91775" lon="3.02232">
        <ele>183</ele>
        <time>2013-09-22T14:20:15Z</time>
      </trkpt>
      <trkpt lat="47.91755" lon="3.02248">
        <ele>184</ele>
        <time>2013-09-22T14:20:16Z</time>
      </trkpt>
      <trkpt lat="47.91736" lon="3.02264">
        <ele>184</ele>
        <time>2013-09-22T14:20:17Z</time>
      </trkpt>
      <trkpt lat="47.91716" lon="3.02277">
        <ele>185</ele>
        <time>2013-09-22T14:20:18Z</time>
      </trkpt>
      <trkpt lat="47.91696" lon="3.02289">
        <ele>185</ele>
        <time>2013-09-22T14:20:20Z</time>
      </trkpt>
      <trkpt lat="47.91678" lon="3.02299">
        <ele>185</ele>
        <time>2013-09-22T14:20:21Z</time>
      </trkpt>
      <trkpt lat="47.91645" lon="3.02318">
        <ele>186</ele>
        <time>2013-09-22T14:20:22Z</time>
      </trkpt>
      <trkpt lat="47.9162" lon="3.02331">
        <ele>186</ele>
        <time>2013-09-22T14:20:24Z</time>
      </trkpt>
      <trkpt lat="47.91596" lon="3.02334">
        <ele>186</ele>
        <time>2013-09-22T14:20:27Z</time>
      </trkpt>
      <trkpt lat="47.91582" lon="3.02318">
        <ele>185</ele>
        <time>2013-09-22T14:20:30Z</time>
      </trkpt>
      <trkpt lat="47.91558" lon="3.02298">
        <ele>185</ele>
        <time>2013-09-22T14:20:31Z</time>
      </trkpt>
      <trkpt lat="47.91528" lon="3.02271">
        <ele>185</ele>
        <time>2013-09-22T14:20:34Z</time>
      </trkpt>
      <trkpt lat="47.9151" lon="3.02256">
        <ele>185</ele>
        <time>2013-09-22T14:20:34Z</time>
      </trkpt>
      <trkpt lat="47.91492" lon="3.02241">
        <ele>185</ele>
        <time>2013-09-22T14:20:35Z</time>
      </trkpt>
      <trkpt lat="47.91475" lon="3.02225">
        <ele>185</ele>
        <time>2013-09-22T14:20:36Z</time>
      </trkpt>
      <trkpt lat="47.91455" lon="3.02208">
        <ele>185</ele>
        <time>2013-09-22T14:20:37Z</time>
      </trkpt>
      <trkpt lat="47.91434" lon="3.0219">
        <ele>185</ele>
        <time>2013-09-22T14:20:38Z</time>
      </trkpt>
      <trkpt lat="47.91414" lon="3.02172">
        <ele>185</ele>
        <time>2013-09-22T14:20:39Z</time>
      </trkpt>
      <trkpt lat="47.91395" lon="3.02155">
        <ele>185</ele>
        <time>2013-09-22T14:20:40Z</time>
      </trkpt>
      <trkpt lat="47.91376" lon="3.0214">
        <ele>184</ele>
        <time>2013-09-22T14:20:41Z</time>
      </trkpt>
      <trkpt lat="47.91357" lon="3.02125">
        <ele>184</ele>
        <time>2013-09-22T14:20:43Z</time>
      </trkpt>
      <trkpt lat="47.91338" lon="3.02113">
        <ele>184</ele>
        <time>2013-09-22T14:20:43Z</time>
      </trkpt>
      <trkpt lat="47.91309" lon="3.02092">
        <ele>183</ele>
        <time>2013-09-22T14:20:45Z</time>
      </trkpt>
      <trkpt lat="47.91292" lon="3.02064">
        <ele>182</ele>
        <time>2013-09-22T14:20:47Z</time>
      </trkpt>
      <trkpt lat="47.91282" lon="3.02019">
        <ele>184</ele>
        <time>2013-09-22T14:20:49Z</time>
      </trkpt>
      <trkpt lat="47.9128" lon="3.01992">
        <ele>184</ele>
        <time>2013-09-22T14:20:50Z</time>
      </trkpt>
      <trkpt lat="47.91278" lon="3.01964">
        <ele>182</ele>
        <time>2013-09-22T14:20:51Z</time>
      </trkpt>
      <trkpt lat="47.91278" lon="3.01935">
        <ele>181</ele>
        <time>2013-09-22T14:20:52Z</time>
      </trkpt>
      <trkpt lat="47.91276" lon="3.01903">
        <ele>181</ele>
        <time>2013-09-22T14:20:53Z</time>
      </trkpt>
      <trkpt lat="47.91273" lon="3.01871">
        <ele>181</ele>
        <time>2013-09-22T14:20:54Z</time>
      </trkpt>
      <trkpt lat="47.91271" lon="3.01839">
        <ele>180</ele>
        <time>2013-09-22T14:20:55Z</time>
      </trkpt>
      <trkpt lat="47.91268" lon="3.01807">
        <ele>180</ele>
        <time>2013-09-22T14:20:56Z</time>
      </trkpt>
      <trkpt lat="47.91266" lon="3.01778">
        <ele>180</ele>
        <time>2013-09-22T14:20:57Z</time>
      </trkpt>
      <trkpt lat="47.91263" lon="3.01749">
        <ele>179</ele>
        <time>2013-09-22T14:20:58Z</time>
      </trkpt>
      <trkpt lat="47.91261" lon="3.0172">
        <ele>179</ele>
        <time>2013-09-22T14:20:59Z</time>
      </trkpt>
      <trkpt lat="47.91258" lon="3.0169">
        <ele>178</ele>
        <time>2013-09-22T14:21:00Z</time>
      </trkpt>
      <trkpt lat="47.91252" lon="3.01659">
        <ele>178</ele>
        <time>2013-09-22T14:21:01Z</time>
      </trkpt>
      <trkpt lat="47.91244" lon="3.01627">
        <ele>178</ele>
        <time>2013-09-22T14:21:02Z</time>
      </trkpt>
      <trkpt lat="47.91237" lon="3.01595">
        <ele>178</ele>
        <time>2013-09-22T14:21:03Z</time>
      </trkpt>
      <trkpt lat="47.9123" lon="3.01564">
        <ele>178</ele>
        <time>2013-09-22T14:21:04Z</time>
      </trkpt>
      <trkpt lat="47.91223" lon="3.01532">
        <ele>177</ele>
        <time>2013-09-22T14:21:05Z</time>
      </trkpt>
      <trkpt lat="47.91215" lon="3.015">
        <ele>177</ele>
        <time>2013-09-22T14:21:06Z</time>
      </trkpt>
      <trkpt lat="47.91208" lon="3.01468">
        <ele>177</ele>
        <time>2013-09-22T14:21:07Z</time>
      </trkpt>
      <trkpt lat="47.912" lon="3.01435">
        <ele>177</ele>
        <time>2013-09-22T14:21:08Z</time>
      </trkpt>
      <trkpt lat="47.91193" lon="3.01403">
        <ele>177</ele>
        <time>2013-09-22T14:21:09Z</time>
      </trkpt>
      <trkpt lat="47.91186" lon="3.01373">
        <ele>177</ele>
        <time>2013-09-22T14:21:10Z</time>
      </trkpt>
      <trkpt lat="47.91173" lon="3.01315">
        <ele>177</ele>
        <time>2013-09-22T14:21:12Z</time>
      </trkpt>
      <trkpt lat="47.91168" lon="3.01288">
        <ele>178</ele>
        <time>2013-09-22T14:21:13Z</time>
      </trkpt>
      <trkpt lat="47.91149" lon="3.01236">
        <ele>178</ele>
        <time>2013-09-22T14:21:15Z</time>
      </trkpt>
      <trkpt lat="47.91139" lon="3.01208">
        <ele>178</ele>
        <time>2013-09-22T14:21:16Z</time>
      </trkpt>
      <trkpt lat="47.91129" lon="3.01181">
        <ele>178</ele>
        <time>2013-09-22T14:21:17Z</time>
      </trkpt>
      <trkpt lat="47.9112" lon="3.01153">
        <ele>178</ele>
        <time>2013-09-22T14:21:18Z</time>
      </trkpt>
      <trkpt lat="47.91118" lon="3.01125">
        <ele>178</ele>
        <time>2013-09-22T14:21:19Z</time>
      </trkpt>
      <trkpt lat="47.91097" lon="3.0107">
        <ele>178</ele>
        <time>2013-09-22T14:21:22Z</time>
      </trkpt>
      <trkpt lat="47.91076" lon="3.01041">
        <ele>178</ele>
        <time>2013-09-22T14:21:24Z</time>
      </trkpt>
      <trkpt lat="47.9106" lon="3.01011">
        <ele>179</ele>
        <time>2013-09-22T14:21:26Z</time>
      </trkpt>
      <trkpt lat="47.91056" lon="3.00964">
        <ele>178</ele>
        <time>2013-09-22T14:21:28Z</time>
      </trkpt>
      <trkpt lat="47.91056" lon="3.00913">
        <ele>178</ele>
        <time>2013-09-22T14:21:30Z</time>
      </trkpt>
      <trkpt lat="47.91043" lon="3.00867">
        <ele>178</ele>
        <time>2013-09-22T14:21:32Z</time>
      </trkpt>
      <trkpt lat="47.91032" lon="3.00846">
        <ele>178</ele>
        <time>2013-09-22T14:21:33Z</time>
      </trkpt>
      <trkpt lat="47.91019" lon="3.00826">
        <ele>178</ele>
        <time>2013-09-22T14:21:34Z</time>
      </trkpt>
      <trkpt lat="47.91005" lon="3.00806">
        <ele>177</ele>
        <time>2013-09-22T14:21:35Z</time>
      </trkpt>
      <trkpt lat="47.90991" lon="3.00789">
        <ele>176</ele>
        <time>2013-09-22T14:21:36Z</time>
      </trkpt>
      <trkpt lat="47.90967" lon="3.00751">
        <ele>175</ele>
        <time>2013-09-22T14:21:38Z</time>
      </trkpt>
      <trkpt lat="47.90956" lon="3.00707">
        <ele>175</ele>
        <time>2013-09-22T14:21:40Z</time>
      </trkpt>
      <trkpt lat="47.90947" lon="3.00671">
        <ele>174</ele>
        <time>2013-09-22T14:21:42Z</time>
      </trkpt>
      <trkpt lat="47.90948" lon="3.00638">
        <ele>174</ele>
        <time>2013-09-22T14:21:44Z</time>
      </trkpt>
      <trkpt lat="47.90959" lon="3.00601">
        <ele>173</ele>
        <time>2013-09-22T14:21:47Z</time>
      </trkpt>
      <trkpt lat="47.9097" lon="3.00556">
        <ele>171</ele>
        <time>2013-09-22T14:21:48Z</time>
      </trkpt>
      <trkpt lat="47.90979" lon="3.00511">
        <ele>171</ele>
        <time>2013-09-22T14:21:50Z</time>
      </trkpt>
      <trkpt lat="47.91005" lon="3.00483">
        <ele>170</ele>
        <time>2013-09-22T14:21:52Z</time>
      </trkpt>
      <trkpt lat="47.91038" lon="3.00463">
        <ele>169</ele>
        <time>2013-09-22T14:21:54Z</time>
      </trkpt>
      <trkpt lat="47.91055" lon="3.00452">
        <ele>168</ele>
        <time>2013-09-22T14:21:55Z</time>
      </trkpt>
      <trkpt lat="47.91088" lon="3.00432">
        <ele>167</ele>
        <time>2013-09-22T14:21:57Z</time>
      </trkpt>
      <trkpt lat="47.91122" lon="3.00411">
        <ele>166</ele>
        <time>2013-09-22T14:21:59Z</time>
      </trkpt>
      <trkpt lat="47.91153" lon="3.00392">
        <ele>166</ele>
        <time>2013-09-22T14:22:01Z</time>
      </trkpt>
      <trkpt lat="47.91175" lon="3.00368">
        <ele>165</ele>
        <time>2013-09-22T14:22:03Z</time>
      </trkpt>
      <trkpt lat="47.91191" lon="3.00333">
        <ele>166</ele>
        <time>2013-09-22T14:22:05Z</time>
      </trkpt>
      <trkpt lat="47.91206" lon="3.00286">
        <ele>164</ele>
        <time>2013-09-22T14:22:07Z</time>
      </trkpt>
      <trkpt lat="47.91214" lon="3.0026">
        <ele>164</ele>
        <time>2013-09-22T14:22:08Z</time>
      </trkpt>
      <trkpt lat="47.91222" lon="3.00232">
        <ele>164</ele>
        <time>2013-09-22T14:22:09Z</time>
      </trkpt>
      <trkpt lat="47.91231" lon="3.00204">
        <ele>164</ele>
        <time>2013-09-22T14:22:10Z</time>
      </trkpt>
      <trkpt lat="47.9124" lon="3.00176">
        <ele>166</ele>
        <time>2013-09-22T14:22:11Z</time>
      </trkpt>
      <trkpt lat="47.91251" lon="3.00148">
        <ele>167</ele>
        <time>2013-09-22T14:22:12Z</time>
      </trkpt>
      <trkpt lat="47.9126" lon="3.00122">
        <ele>168</ele>
        <time>2013-09-22T14:22:13Z</time>
      </trkpt>
      <trkpt lat="47.9127" lon="3.00096">
        <ele>169</ele>
        <time>2013-09-22T14:22:14Z</time>
      </trkpt>
      <trkpt lat="47.91278" lon="3.00071">
        <ele>169</ele>
        <time>2013-09-22T14:22:15Z</time>
      </trkpt>
      <trkpt lat="47.91286" lon="3.00045">
        <ele>170</ele>
        <time>2013-09-22T14:22:16Z</time>
      </trkpt>
      <trkpt lat="47.91295" lon="3.0002">
        <ele>170</ele>
        <time>2013-09-22T14:22:17Z</time>
      </trkpt>
      <trkpt lat="47.91302" lon="2.99992">
        <ele>170</ele>
        <time>2013-09-22T14:22:18Z</time>
      </trkpt>
      <trkpt lat="47.91309" lon="2.99963">
        <ele>170</ele>
        <time>2013-09-22T14:22:19Z</time>
      </trkpt>
      <trkpt lat="47.91311" lon="2.99933">
        <ele>170</ele>
        <time>2013-09-22T14:22:20Z</time>
      </trkpt>
      <trkpt lat="47.91316" lon="2.99904">
        <ele>169</ele>
        <time>2013-09-22T14:22:21Z</time>
      </trkpt>
      <trkpt lat="47.9132" lon="2.99876">
        <ele>168</ele>
        <time>2013-09-22T14:22:22Z</time>
      </trkpt>
      <trkpt lat="47.91321" lon="2.99849">
        <ele>168</ele>
        <time>2013-09-22T14:22:23Z</time>
      </trkpt>
      <trkpt lat="47.91324" lon="2.99806">
        <ele>168</ele>
        <time>2013-09-22T14:22:25Z</time>
      </trkpt>
      <trkpt lat="47.91326" lon="2.99772">
        <ele>168</ele>
        <time>2013-09-22T14:22:27Z</time>
      </trkpt>
      <trkpt lat="47.91327" lon="2.99745">
        <ele>169</ele>
        <time>2013-09-22T14:22:31Z</time>
      </trkpt>
      <trkpt lat="47.91342" lon="2.99727">
        <ele>168</ele>
        <time>2013-09-22T14:22:48Z</time>
      </trkpt>
      <trkpt lat="47.9136" lon="2.99719">
        <ele>167</ele>
        <time>2013-09-22T14:22:50Z</time>
      </trkpt>
      <trkpt lat="47.91386" lon="2.99704">
        <ele>167</ele>
        <time>2013-09-22T14:22:52Z</time>
      </trkpt>
      <trkpt lat="47.91417" lon="2.99692">
        <ele>168</ele>
        <time>2013-09-22T14:22:54Z</time>
      </trkpt>
      <trkpt lat="47.91449" lon="2.99682">
        <ele>169</ele>
        <time>2013-09-22T14:22:56Z</time>
      </trkpt>
      <trkpt lat="47.91476" lon="2.99673">
        <ele>167</ele>
        <time>2013-09-22T14:22:58Z</time>
      </trkpt>
      <trkpt lat="47.91498" lon="2.99669">
        <ele>166</ele>
        <time>2013-09-22T14:23:00Z</time>
      </trkpt>
      <trkpt lat="47.91523" lon="2.99667">
        <ele>166</ele>
        <time>2013-09-22T14:23:03Z</time>
      </trkpt>
      <trkpt lat="47.91536" lon="2.99647">
        <ele>162</ele>
        <time>2013-09-22T14:23:08Z</time>
      </trkpt>
      <trkpt lat="47.91531" lon="2.99616">
        <ele>162</ele>
        <time>2013-09-22T14:23:11Z</time>
      </trkpt>
      <trkpt lat="47.91521" lon="2.99584">
        <ele>163</ele>
        <time>2013-09-22T14:23:13Z</time>
      </trkpt>
      <trkpt lat="47.91505" lon="2.99548">
        <ele>163</ele>
        <time>2013-09-22T14:23:15Z</time>
      </trkpt>
      <trkpt lat="47.91488" lon="2.99512">
        <ele>162</ele>
        <time>2013-09-22T14:23:17Z</time>
      </trkpt>
      <trkpt lat="47.91475" lon="2.99477">
        <ele>162</ele>
        <time>2013-09-22T14:23:19Z</time>
      </trkpt>
      <trkpt lat="47.91472" lon="2.99439">
        <ele>160</ele>
        <time>2013-09-22T14:23:21Z</time>
      </trkpt>
      <trkpt lat="47.91486" lon="2.99402">
        <ele>162</ele>
        <time>2013-09-22T14:23:23Z</time>
      </trkpt>
      <trkpt lat="47.91503" lon="2.99372">
        <ele>164</ele>
        <time>2013-09-22T14:23:25Z</time>
      </trkpt>
      <trkpt lat="47.91521" lon="2.99353">
        <ele>165</ele>
        <time>2013-09-22T14:23:27Z</time>
      </trkpt>
      <trkpt lat="47.91545" lon="2.99338">
        <ele>165</ele>
        <time>2013-09-22T14:23:29Z</time>
      </trkpt>
      <trkpt lat="47.91572" lon="2.99322">
        <ele>166</ele>
        <time>2013-09-22T14:23:31Z</time>
      </trkpt>
      <trkpt lat="47.91598" lon="2.99301">
        <ele>166</ele>
        <time>2013-09-22T14:23:33Z</time>
      </trkpt>
      <trkpt lat="47.91624" lon="2.99272">
        <ele>166</ele>
        <time>2013-09-22T14:23:35Z</time>
      </trkpt>
      <trkpt lat="47.91648" lon="2.99246">
        <ele>163</ele>
        <time>2013-09-22T14:23:37Z</time>
      </trkpt>
      <trkpt lat="47.9167" lon="2.99221">
        <ele>162</ele>
        <time>2013-09-22T14:23:39Z</time>
      </trkpt>
      <trkpt lat="47.91684" lon="2.99199">
        <ele>163</ele>
        <time>2013-09-22T14:23:41Z</time>
      </trkpt>
      <trkpt lat="47.91686" lon="2.99166">
        <ele>163</ele>
        <time>2013-09-22T14:23:44Z</time>
      </trkpt>
      <trkpt lat="47.91676" lon="2.9914">
        <ele>165</ele>
        <time>2013-09-22T14:23:46Z</time>
      </trkpt>
      <trkpt lat="47.91664" lon="2.99112">
        <ele>167</ele>
        <time>2013-09-22T14:23:48Z</time>
      </trkpt>
      <trkpt lat="47.91659" lon="2.99083">
        <ele>166</ele>
        <time>2013-09-22T14:23:50Z</time>
      </trkpt>
      <trkpt lat="47.91665" lon="2.99051">
        <ele>165</ele>
        <time>2013-09-22T14:23:52Z</time>
      </trkpt>
      <trkpt lat="47.91687" lon="2.9903">
        <ele>165</ele>
        <time>2013-09-22T14:23:54Z</time>
      </trkpt>
      <trkpt lat="47.91713" lon="2.99009">
        <ele>165</ele>
        <time>2013-09-22T14:23:56Z</time>
      </trkpt>
      <trkpt lat="47.9174" lon="2.98988">
        <ele>163</ele>
        <time>2013-09-22T14:23:58Z</time>
      </trkpt>
      <trkpt lat="47.91763" lon="2.98965">
        <ele>162</ele>
        <time>2013-09-22T14:24:00Z</time>
      </trkpt>
      <trkpt lat="47.91781" lon="2.98933">
        <ele>161</ele>
        <time>2013-09-22T14:24:02Z</time>
      </trkpt>
      <trkpt lat="47.91793" lon="2.98888">
        <ele>160</ele>
        <time>2013-09-22T14:24:04Z</time>
      </trkpt>
      <trkpt lat="47.91798" lon="2.98838">
        <ele>161</ele>
        <time>2013-09-22T14:24:06Z</time>
      </trkpt>
      <trkpt lat="47.91798" lon="2.98788">
        <ele>161</ele>
        <time>2013-09-22T14:24:08Z</time>
      </trkpt>
      <trkpt lat="47.91801" lon="2.98715">
        <ele>158</ele>
        <time>2013-09-22T14:24:11Z</time>
      </trkpt>
      <trkpt lat="47.91812" lon="2.98639">
        <ele>153</ele>
        <time>2013-09-22T14:24:14Z</time>
      </trkpt>
      <trkpt lat="47.91819" lon="2.9859">
        <ele>152</ele>
        <time>2013-09-22T14:24:16Z</time>
      </trkpt>
      <trkpt lat="47.91825" lon="2.9854">
        <ele>150</ele>
        <time>2013-09-22T14:24:18Z</time>
      </trkpt>
      <trkpt lat="47.91826" lon="2.98489">
        <ele>149</ele>
        <time>2013-09-22T14:24:20Z</time>
      </trkpt>
      <trkpt lat="47.91825" lon="2.98462">
        <ele>148</ele>
        <time>2013-09-22T14:24:21Z</time>
      </trkpt>
      <trkpt lat="47.91825" lon="2.9841">
        <ele>148</ele>
        <time>2013-09-22T14:24:23Z</time>
      </trkpt>
      <trkpt lat="47.91818" lon="2.98358">
        <ele>149</ele>
        <time>2013-09-22T14:24:25Z</time>
      </trkpt>
      <trkpt lat="47.91806" lon="2.98311">
        <ele>151</ele>
        <time>2013-09-22T14:24:27Z</time>
      </trkpt>
      <trkpt lat="47.91799" lon="2.98267">
        <ele>152</ele>
        <time>2013-09-22T14:24:29Z</time>
      </trkpt>
      <trkpt lat="47.91794" lon="2.98218">
        <ele>153</ele>
        <time>2013-09-22T14:24:31Z</time>
      </trkpt>
      <trkpt lat="47.91791" lon="2.98172">
        <ele>154</ele>
        <time>2013-09-22T14:24:33Z</time>
      </trkpt>
      <trkpt lat="47.91791" lon="2.98125">
        <ele>154</ele>
        <time>2013-09-22T14:24:35Z</time>
      </trkpt>
      <trkpt lat="47.918" lon="2.98081">
        <ele>156</ele>
        <time>2013-09-22T14:24:37Z</time>
      </trkpt>
      <trkpt lat="47.91819" lon="2.98036">
        <ele>157</ele>
        <time>2013-09-22T14:24:39Z</time>
      </trkpt>
      <trkpt lat="47.91836" lon="2.97991">
        <ele>157</ele>
        <time>2013-09-22T14:24:41Z</time>
      </trkpt>
      <trkpt lat="47.9185" lon="2.97947">
        <ele>157</ele>
        <time>2013-09-22T14:24:43Z</time>
      </trkpt>
      <trkpt lat="47.91857" lon="2.97895">
        <ele>158</ele>
        <time>2013-09-22T14:24:45Z</time>
      </trkpt>
      <trkpt lat="47.91858" lon="2.97868">
        <ele>160</ele>
        <time>2013-09-22T14:24:46Z</time>
      </trkpt>
      <trkpt lat="47.91857" lon="2.97839">
        <ele>160</ele>
        <time>2013-09-22T14:24:47Z</time>
      </trkpt>
      <trkpt lat="47.91855" lon="2.9781">
        <ele>160</ele>
        <time>2013-09-22T14:24:48Z</time>
      </trkpt>
      <trkpt lat="47.91855" lon="2.9778">
        <ele>161</ele>
        <time>2013-09-22T14:24:49Z</time>
      </trkpt>
      <trkpt lat="47.91859" lon="2.97749">
        <ele>162</ele>
        <time>2013-09-22T14:24:50Z</time>
      </trkpt>
      <trkpt lat="47.91863" lon="2.97717">
        <ele>162</ele>
        <time>2013-09-22T14:24:51Z</time>
      </trkpt>
      <trkpt lat="47.91867" lon="2.97682">
        <ele>161</ele>
        <time>2013-09-22T14:24:52Z</time>
      </trkpt>
      <trkpt lat="47.91871" lon="2.97649">
        <ele>161</ele>
        <time>2013-09-22T14:24:53Z</time>
      </trkpt>
      <trkpt lat="47.91877" lon="2.97618">
        <ele>162</ele>
        <time>2013-09-22T14:24:54Z</time>
      </trkpt>
      <trkpt lat="47.91883" lon="2.97585">
        <ele>164</ele>
        <time>2013-09-22T14:24:55Z</time>
      </trkpt>
      <trkpt lat="47.91888" lon="2.97551">
        <ele>167</ele>
        <time>2013-09-22T14:24:56Z</time>
      </trkpt>
      <trkpt lat="47.91893" lon="2.9752">
        <ele>169</ele>
        <time>2013-09-22T14:24:57Z</time>
      </trkpt>
      <trkpt lat="47.91898" lon="2.97493">
        <ele>170</ele>
        <time>2013-09-22T14:24:58Z</time>
      </trkpt>
      <trkpt lat="47.91903" lon="2.97465">
        <ele>170</ele>
        <time>2013-09-22T14:24:59Z</time>
      </trkpt>
      <trkpt lat="47.91906" lon="2.97436">
        <ele>172</ele>
        <time>2013-09-22T14:25:00Z</time>
      </trkpt>
      <trkpt lat="47.91911" lon="2.97406">
        <ele>173</ele>
        <time>2013-09-22T14:25:01Z</time>
      </trkpt>
      <trkpt lat="47.91914" lon="2.9738">
        <ele>174</ele>
        <time>2013-09-22T14:25:02Z</time>
      </trkpt>
      <trkpt lat="47.9192" lon="2.97335">
        <ele>176</ele>
        <time>2013-09-22T14:25:04Z</time>
      </trkpt>
      <trkpt lat="47.91923" lon="2.97306">
        <ele>177</ele>
        <time>2013-09-22T14:25:06Z</time>
      </trkpt>
      <trkpt lat="47.91923" lon="2.97277">
        <ele>179</ele>
        <time>2013-09-22T14:25:14Z</time>
      </trkpt>
      <trkpt lat="47.91889" lon="2.97265">
        <ele>178</ele>
        <time>2013-09-22T14:25:17Z</time>
      </trkpt>
      <trkpt lat="47.91871" lon="2.97262">
        <ele>177</ele>
        <time>2013-09-22T14:25:18Z</time>
      </trkpt>
      <trkpt lat="47.91852" lon="2.97257">
        <ele>177</ele>
        <time>2013-09-22T14:25:19Z</time>
      </trkpt>
      <trkpt lat="47.91829" lon="2.97255">
        <ele>177</ele>
        <time>2013-09-22T14:25:20Z</time>
      </trkpt>
      <trkpt lat="47.91806" lon="2.97254">
        <ele>176</ele>
        <time>2013-09-22T14:25:21Z</time>
      </trkpt>
      <trkpt lat="47.91783" lon="2.97253">
        <ele>175</ele>
        <time>2013-09-22T14:25:22Z</time>
      </trkpt>
      <trkpt lat="47.91758" lon="2.97253">
        <ele>176</ele>
        <time>2013-09-22T14:25:23Z</time>
      </trkpt>
      <trkpt lat="47.91734" lon="2.97253">
        <ele>176</ele>
        <time>2013-09-22T14:25:24Z</time>
      </trkpt>
      <trkpt lat="47.9171" lon="2.97255">
        <ele>176</ele>
        <time>2013-09-22T14:25:25Z</time>
      </trkpt>
      <trkpt lat="47.91687" lon="2.9726">
        <ele>176</ele>
        <time>2013-09-22T14:25:26Z</time>
      </trkpt>
      <trkpt lat="47.91663" lon="2.97263">
        <ele>177</ele>
        <time>2013-09-22T14:25:27Z</time>
      </trkpt>
      <trkpt lat="47.91639" lon="2.97265">
        <ele>177</ele>
        <time>2013-09-22T14:25:28Z</time>
      </trkpt>
      <trkpt lat="47.91614" lon="2.97264">
        <ele>177</ele>
        <time>2013-09-22T14:25:29Z</time>
      </trkpt>
      <trkpt lat="47.91589" lon="2.97263">
        <ele>178</ele>
        <time>2013-09-22T14:25:30Z</time>
      </trkpt>
      <trkpt lat="47.91564" lon="2.97253">
        <ele>178</ele>
        <time>2013-09-22T14:25:31Z</time>
      </trkpt>
      <trkpt lat="47.91537" lon="2.97238">
        <ele>178</ele>
        <time>2013-09-22T14:25:32Z</time>
      </trkpt>
      <trkpt lat="47.91511" lon="2.97227">
        <ele>178</ele>
        <time>2013-09-22T14:25:33Z</time>
      </trkpt>
      <trkpt lat="47.91486" lon="2.97208">
        <ele>179</ele>
        <time>2013-09-22T14:25:34Z</time>
      </trkpt>
      <trkpt lat="47.91459" lon="2.97191">
        <ele>179</ele>
        <time>2013-09-22T14:25:35Z</time>
      </trkpt>
      <trkpt lat="47.91432" lon="2.97171">
        <ele>180</ele>
        <time>2013-09-22T14:25:36Z</time>
      </trkpt>
      <trkpt lat="47.91405" lon="2.97153">
        <ele>181</ele>
        <time>2013-09-22T14:25:37Z</time>
      </trkpt>
      <trkpt lat="47.91378" lon="2.97135">
        <ele>181</ele>
        <time>2013-09-22T14:25:38Z</time>
      </trkpt>
      <trkpt lat="47.91351" lon="2.97119">
        <ele>182</ele>
        <time>2013-09-22T14:25:39Z</time>
      </trkpt>
      <trkpt lat="47.91323" lon="2.97104">
        <ele>182</ele>
        <time>2013-09-22T14:25:40Z</time>
      </trkpt>
      <trkpt lat="47.91296" lon="2.97088">
        <ele>182</ele>
        <time>2013-09-22T14:25:41Z</time>
      </trkpt>
      <trkpt lat="47.91269" lon="2.97072">
        <ele>182</ele>
        <time>2013-09-22T14:25:42Z</time>
      </trkpt>
      <trkpt lat="47.91241" lon="2.97059">
        <ele>184</ele>
        <time>2013-09-22T14:25:43Z</time>
      </trkpt>
      <trkpt lat="47.91215" lon="2.97049">
        <ele>183</ele>
        <time>2013-09-22T14:25:44Z</time>
      </trkpt>
      <trkpt lat="47.91187" lon="2.9704">
        <ele>183</ele>
        <time>2013-09-22T14:25:45Z</time>
      </trkpt>
      <trkpt lat="47.91159" lon="2.97029">
        <ele>184</ele>
        <time>2013-09-22T14:25:46Z</time>
      </trkpt>
      <trkpt lat="47.91131" lon="2.97019">
        <ele>183</ele>
        <time>2013-09-22T14:25:47Z</time>
      </trkpt>
      <trkpt lat="47.91103" lon="2.97008">
        <ele>183</ele>
        <time>2013-09-22T14:25:48Z</time>
      </trkpt>
      <trkpt lat="47.91076" lon="2.96997">
        <ele>183</ele>
        <time>2013-09-22T14:25:49Z</time>
      </trkpt>
      <trkpt lat="47.9105" lon="2.96987">
        <ele>182</ele>
        <time>2013-09-22T14:25:50Z</time>
      </trkpt>
      <trkpt lat="47.91026" lon="2.96977">
        <ele>181</ele>
        <time>2013-09-22T14:25:51Z</time>
      </trkpt>
      <trkpt lat="47.91001" lon="2.96967">
        <ele>181</ele>
        <time>2013-09-22T14:25:52Z</time>
      </trkpt>
      <trkpt lat="47.90977" lon="2.96959">
        <ele>181</ele>
        <time>2013-09-22T14:25:53Z</time>
      </trkpt>
      <trkpt lat="47.90956" lon="2.9695">
        <ele>181</ele>
        <time>2013-09-22T14:25:54Z</time>
      </trkpt>
      <trkpt lat="47.90919" lon="2.96934">
        <ele>180</ele>
        <time>2013-09-22T14:25:56Z</time>
      </trkpt>
      <trkpt lat="47.90894" lon="2.96902">
        <ele>180</ele>
        <time>2013-09-22T14:25:58Z</time>
      </trkpt>
      <trkpt lat="47.90876" lon="2.96876">
        <ele>181</ele>
        <time>2013-09-22T14:25:59Z</time>
      </trkpt>
      <trkpt lat="47.90857" lon="2.96853">
        <ele>180</ele>
        <time>2013-09-22T14:26:00Z</time>
      </trkpt>
      <trkpt lat="47.90838" lon="2.9683">
        <ele>178</ele>
        <time>2013-09-22T14:26:01Z</time>
      </trkpt>
      <trkpt lat="47.90815" lon="2.96809">
        <ele>180</ele>
        <time>2013-09-22T14:26:02Z</time>
      </trkpt>
      <trkpt lat="47.90792" lon="2.96785">
        <ele>180</ele>
        <time>2013-09-22T14:26:03Z</time>
      </trkpt>
      <trkpt lat="47.90771" lon="2.96757">
        <ele>181</ele>
        <time>2013-09-22T14:26:04Z</time>
      </trkpt>
      <trkpt lat="47.90749" lon="2.96731">
        <ele>181</ele>
        <time>2013-09-22T14:26:05Z</time>
      </trkpt>
      <trkpt lat="47.90728" lon="2.96702">
        <ele>182</ele>
        <time>2013-09-22T14:26:06Z</time>
      </trkpt>
      <trkpt lat="47.90706" lon="2.96672">
        <ele>181</ele>
        <time>2013-09-22T14:26:07Z</time>
      </trkpt>
      <trkpt lat="47.90687" lon="2.96646">
        <ele>181</ele>
        <time>2013-09-22T14:26:08Z</time>
      </trkpt>
      <trkpt lat="47.90667" lon="2.9662">
        <ele>181</ele>
        <time>2013-09-22T14:26:09Z</time>
      </trkpt>
      <trkpt lat="47.90648" lon="2.96592">
        <ele>181</ele>
        <time>2013-09-22T14:26:10Z</time>
      </trkpt>
      <trkpt lat="47.9063" lon="2.96562">
        <ele>181</ele>
        <time>2013-09-22T14:26:11Z</time>
      </trkpt>
      <trkpt lat="47.90613" lon="2.96533">
        <ele>181</ele>
        <time>2013-09-22T14:26:12Z</time>
      </trkpt>
      <trkpt lat="47.90594" lon="2.96502">
        <ele>181</ele>
        <time>2013-09-22T14:26:13Z</time>
      </trkpt>
      <trkpt lat="47.90576" lon="2.96473">
        <ele>181</ele>
        <time>2013-09-22T14:26:14Z</time>
      </trkpt>
      <trkpt lat="47.90557" lon="2.96445">
        <ele>181</ele>
        <time>2013-09-22T14:26:15Z</time>
      </trkpt>
      <trkpt lat="47.90537" lon="2.96422">
        <ele>181</ele>
        <time>2013-09-22T14:26:16Z</time>
      </trkpt>
      <trkpt lat="47.90512" lon="2.96402">
        <ele>182</ele>
        <time>2013-09-22T14:26:17Z</time>
      </trkpt>
      <trkpt lat="47.90488" lon="2.96382">
        <ele>183</ele>
        <time>2013-09-22T14:26:18Z</time>
      </trkpt>
      <trkpt lat="47.90465" lon="2.96361">
        <ele>183</ele>
        <time>2013-09-22T14:26:19Z</time>
      </trkpt>
      <trkpt lat="47.90441" lon="2.96342">
        <ele>184</ele>
        <time>2013-09-22T14:26:20Z</time>
      </trkpt>
      <trkpt lat="47.90418" lon="2.96323">
        <ele>184</ele>
        <time>2013-09-22T14:26:21Z</time>
      </trkpt>
      <trkpt lat="47.90395" lon="2.96304">
        <ele>184</ele>
        <time>2013-09-22T14:26:22Z</time>
      </trkpt>
      <trkpt lat="47.9037" lon="2.96287">
        <ele>184</ele>
        <time>2013-09-22T14:26:23Z</time>
      </trkpt>
      <trkpt lat="47.90347" lon="2.96272">
        <ele>185</ele>
        <time>2013-09-22T14:26:24Z</time>
      </trkpt>
      <trkpt lat="47.90324" lon="2.96257">
        <ele>185</ele>
        <time>2013-09-22T14:26:25Z</time>
      </trkpt>
      <trkpt lat="47.90302" lon="2.96243">
        <ele>185</ele>
        <time>2013-09-22T14:26:26Z</time>
      </trkpt>
      <trkpt lat="47.90282" lon="2.96226">
        <ele>184</ele>
        <time>2013-09-22T14:26:27Z</time>
      </trkpt>
      <trkpt lat="47.90262" lon="2.9621">
        <ele>184</ele>
        <time>2013-09-22T14:26:28Z</time>
      </trkpt>
      <trkpt lat="47.90244" lon="2.96182">
        <ele>184</ele>
        <time>2013-09-22T14:26:29Z</time>
      </trkpt>
      <trkpt lat="47.90227" lon="2.96157">
        <ele>184</ele>
        <time>2013-09-22T14:26:30Z</time>
      </trkpt>
      <trkpt lat="47.90208" lon="2.96132">
        <ele>184</ele>
        <time>2013-09-22T14:26:31Z</time>
      </trkpt>
      <trkpt lat="47.90188" lon="2.96107">
        <ele>183</ele>
        <time>2013-09-22T14:26:32Z</time>
      </trkpt>
      <trkpt lat="47.90168" lon="2.96082">
        <ele>182</ele>
        <time>2013-09-22T14:26:33Z</time>
      </trkpt>
      <trkpt lat="47.90148" lon="2.96057">
        <ele>182</ele>
        <time>2013-09-22T14:26:34Z</time>
      </trkpt>
      <trkpt lat="47.90127" lon="2.96033">
        <ele>181</ele>
        <time>2013-09-22T14:26:35Z</time>
      </trkpt>
      <trkpt lat="47.90106" lon="2.96008">
        <ele>181</ele>
        <time>2013-09-22T14:26:36Z</time>
      </trkpt>
      <trkpt lat="47.90084" lon="2.95983">
        <ele>180</ele>
        <time>2013-09-22T14:26:37Z</time>
      </trkpt>
      <trkpt lat="47.90062" lon="2.95958">
        <ele>180</ele>
        <time>2013-09-22T14:26:38Z</time>
      </trkpt>
      <trkpt lat="47.90042" lon="2.95931">
        <ele>179</ele>
        <time>2013-09-22T14:26:39Z</time>
      </trkpt>
      <trkpt lat="47.90021" lon="2.95906">
        <ele>178</ele>
        <time>2013-09-22T14:26:40Z</time>
      </trkpt>
      <trkpt lat="47.90001" lon="2.95883">
        <ele>177</ele>
        <time>2013-09-22T14:26:41Z</time>
      </trkpt>
      <trkpt lat="47.89981" lon="2.95861">
        <ele>176</ele>
        <time>2013-09-22T14:26:42Z</time>
      </trkpt>
      <trkpt lat="47.89962" lon="2.95841">
        <ele>176</ele>
        <time>2013-09-22T14:26:43Z</time>
      </trkpt>
      <trkpt lat="47.89942" lon="2.95825">
        <ele>175</ele>
        <time>2013-09-22T14:26:44Z</time>
      </trkpt>
      <trkpt lat="47.89922" lon="2.9581">
        <ele>173</ele>
        <time>2013-09-22T14:26:45Z</time>
      </trkpt>
      <trkpt lat="47.89901" lon="2.95797">
        <ele>172</ele>
        <time>2013-09-22T14:26:46Z</time>
      </trkpt>
      <trkpt lat="47.8988" lon="2.95785">
        <ele>171</ele>
        <time>2013-09-22T14:26:47Z</time>
      </trkpt>
      <trkpt lat="47.89858" lon="2.95777">
        <ele>169</ele>
        <time>2013-09-22T14:26:48Z</time>
      </trkpt>
      <trkpt lat="47.89836" lon="2.95771">
        <ele>168</ele>
        <time>2013-09-22T14:26:49Z</time>
      </trkpt>
      <trkpt lat="47.89816" lon="2.95767">
        <ele>167</ele>
        <time>2013-09-22T14:26:50Z</time>
      </trkpt>
      <trkpt lat="47.89797" lon="2.95762">
        <ele>168</ele>
        <time>2013-09-22T14:26:51Z</time>
      </trkpt>
      <trkpt lat="47.89778" lon="2.95757">
        <ele>168</ele>
        <time>2013-09-22T14:26:52Z</time>
      </trkpt>
      <trkpt lat="47.89754" lon="2.95726">
        <ele>166</ele>
        <time>2013-09-22T14:26:54Z</time>
      </trkpt>
      <trkpt lat="47.89733" lon="2.95682">
        <ele>166</ele>
        <time>2013-09-22T14:26:56Z</time>
      </trkpt>
      <trkpt lat="47.89723" lon="2.9565">
        <ele>167</ele>
        <time>2013-09-22T14:26:57Z</time>
      </trkpt>
      <trkpt lat="47.89713" lon="2.95623">
        <ele>168</ele>
        <time>2013-09-22T14:26:58Z</time>
      </trkpt>
      <trkpt lat="47.89702" lon="2.95596">
        <ele>169</ele>
        <time>2013-09-22T14:26:59Z</time>
      </trkpt>
      <trkpt lat="47.89693" lon="2.95571">
        <ele>169</ele>
        <time>2013-09-22T14:27:00Z</time>
      </trkpt>
      <trkpt lat="47.89684" lon="2.95546">
        <ele>168</ele>
        <time>2013-09-22T14:27:01Z</time>
      </trkpt>
      <trkpt lat="47.89669" lon="2.95501">
        <ele>168</ele>
        <time>2013-09-22T14:27:03Z</time>
      </trkpt>
      <trkpt lat="47.89655" lon="2.95458">
        <ele>168</ele>
        <time>2013-09-22T14:27:05Z</time>
      </trkpt>
      <trkpt lat="47.89641" lon="2.95416">
        <ele>168</ele>
        <time>2013-09-22T14:27:07Z</time>
      </trkpt>
      <trkpt lat="47.89625" lon="2.95376">
        <ele>169</ele>
        <time>2013-09-22T14:27:09Z</time>
      </trkpt>
      <trkpt lat="47.89613" lon="2.95345">
        <ele>168</ele>
        <time>2013-09-22T14:27:11Z</time>
      </trkpt>
      <trkpt lat="47.89604" lon="2.95319">
        <ele>168</ele>
        <time>2013-09-22T14:27:13Z</time>
      </trkpt>
      <trkpt lat="47.89595" lon="2.95293">
        <ele>166</ele>
        <time>2013-09-22T14:27:17Z</time>
      </trkpt>
      <trkpt lat="47.8957" lon="2.95256">
        <ele>166</ele>
        <time>2013-09-22T14:27:21Z</time>
      </trkpt>
      <trkpt lat="47.89565" lon="2.95224">
        <ele>166</ele>
        <time>2013-09-22T14:27:23Z</time>
      </trkpt>
      <trkpt lat="47.89569" lon="2.95194">
        <ele>164</ele>
        <time>2013-09-22T14:27:25Z</time>
      </trkpt>
      <trkpt lat="47.89579" lon="2.95172">
        <ele>163</ele>
        <time>2013-09-22T14:27:27Z</time>
      </trkpt>
      <trkpt lat="47.89596" lon="2.95146">
        <ele>162</ele>
        <time>2013-09-22T14:27:29Z</time>
      </trkpt>
      <trkpt lat="47.8961" lon="2.95115">
        <ele>161</ele>
        <time>2013-09-22T14:27:31Z</time>
      </trkpt>
      <trkpt lat="47.89617" lon="2.95078">
        <ele>161</ele>
        <time>2013-09-22T14:27:33Z</time>
      </trkpt>
      <trkpt lat="47.8962" lon="2.95037">
        <ele>160</ele>
        <time>2013-09-22T14:27:35Z</time>
      </trkpt>
      <trkpt lat="47.89624" lon="2.94992">
        <ele>160</ele>
        <time>2013-09-22T14:27:37Z</time>
      </trkpt>
      <trkpt lat="47.89628" lon="2.94943">
        <ele>161</ele>
        <time>2013-09-22T14:27:39Z</time>
      </trkpt>
      <trkpt lat="47.89633" lon="2.94894">
        <ele>161</ele>
        <time>2013-09-22T14:27:41Z</time>
      </trkpt>
      <trkpt lat="47.89639" lon="2.94841">
        <ele>158</ele>
        <time>2013-09-22T14:27:43Z</time>
      </trkpt>
      <trkpt lat="47.89641" lon="2.94812">
        <ele>158</ele>
        <time>2013-09-22T14:27:44Z</time>
      </trkpt>
      <trkpt lat="47.89644" lon="2.94782">
        <ele>158</ele>
        <time>2013-09-22T14:27:45Z</time>
      </trkpt>
      <trkpt lat="47.89646" lon="2.94751">
        <ele>158</ele>
        <time>2013-09-22T14:27:46Z</time>
      </trkpt>
      <trkpt lat="47.89649" lon="2.94719">
        <ele>159</ele>
        <time>2013-09-22T14:27:47Z</time>
      </trkpt>
      <trkpt lat="47.89652" lon="2.94686">
        <ele>158</ele>
        <time>2013-09-22T14:27:48Z</time>
      </trkpt>
      <trkpt lat="47.89655" lon="2.94656">
        <ele>159</ele>
        <time>2013-09-22T14:27:49Z</time>
      </trkpt>
      <trkpt lat="47.89657" lon="2.94627">
        <ele>158</ele>
        <time>2013-09-22T14:27:50Z</time>
      </trkpt>
      <trkpt lat="47.8966" lon="2.94599">
        <ele>159</ele>
        <time>2013-09-22T14:27:51Z</time>
      </trkpt>
      <trkpt lat="47.89671" lon="2.94551">
        <ele>161</ele>
        <time>2013-09-22T14:27:53Z</time>
      </trkpt>
      <trkpt lat="47.89689" lon="2.94505">
        <ele>164</ele>
        <time>2013-09-22T14:27:55Z</time>
      </trkpt>
      <trkpt lat="47.89699" lon="2.94482">
        <ele>164</ele>
        <time>2013-09-22T14:27:56Z</time>
      </trkpt>
      <trkpt lat="47.8971" lon="2.94458">
        <ele>165</ele>
        <time>2013-09-22T14:27:57Z</time>
      </trkpt>
      <trkpt lat="47.89721" lon="2.94434">
        <ele>167</ele>
        <time>2013-09-22T14:27:58Z</time>
      </trkpt>
      <trkpt lat="47.89731" lon="2.94409">
        <ele>167</ele>
        <time>2013-09-22T14:27:59Z</time>
      </trkpt>
      <trkpt lat="47.89742" lon="2.94386">
        <ele>169</ele>
        <time>2013-09-22T14:28:00Z</time>
      </trkpt>
      <trkpt lat="47.89752" lon="2.94363">
        <ele>169</ele>
        <time>2013-09-22T14:28:01Z</time>
      </trkpt>
      <trkpt lat="47.89763" lon="2.94339">
        <ele>170</ele>
        <time>2013-09-22T14:28:02Z</time>
      </trkpt>
      <trkpt lat="47.89773" lon="2.94317">
        <ele>171</ele>
        <time>2013-09-22T14:28:03Z</time>
      </trkpt>
      <trkpt lat="47.89793" lon="2.94272">
        <ele>171</ele>
        <time>2013-09-22T14:28:05Z</time>
      </trkpt>
      <trkpt lat="47.898" lon="2.94244">
        <ele>172</ele>
        <time>2013-09-22T14:28:06Z</time>
      </trkpt>
      <trkpt lat="47.89807" lon="2.94216">
        <ele>172</ele>
        <time>2013-09-22T14:28:07Z</time>
      </trkpt>
      <trkpt lat="47.89815" lon="2.94191">
        <ele>171</ele>
        <time>2013-09-22T14:28:08Z</time>
      </trkpt>
      <trkpt lat="47.89822" lon="2.94162">
        <ele>171</ele>
        <time>2013-09-22T14:28:09Z</time>
      </trkpt>
      <trkpt lat="47.89829" lon="2.94131">
        <ele>172</ele>
        <time>2013-09-22T14:28:10Z</time>
      </trkpt>
      <trkpt lat="47.89836" lon="2.94102">
        <ele>171</ele>
        <time>2013-09-22T14:28:11Z</time>
      </trkpt>
      <trkpt lat="47.89843" lon="2.9407">
        <ele>171</ele>
        <time>2013-09-22T14:28:12Z</time>
      </trkpt>
      <trkpt lat="47.8985" lon="2.94035">
        <ele>171</ele>
        <time>2013-09-22T14:28:13Z</time>
      </trkpt>
      <trkpt lat="47.89857" lon="2.94002">
        <ele>170</ele>
        <time>2013-09-22T14:28:14Z</time>
      </trkpt>
      <trkpt lat="47.89864" lon="2.93968">
        <ele>171</ele>
        <time>2013-09-22T14:28:15Z</time>
      </trkpt>
      <trkpt lat="47.89871" lon="2.93933">
        <ele>171</ele>
        <time>2013-09-22T14:28:16Z</time>
      </trkpt>
      <trkpt lat="47.89879" lon="2.93898">
        <ele>171</ele>
        <time>2013-09-22T14:28:17Z</time>
      </trkpt>
      <trkpt lat="47.89886" lon="2.93862">
        <ele>170</ele>
        <time>2013-09-22T14:28:18Z</time>
      </trkpt>
      <trkpt lat="47.89893" lon="2.93828">
        <ele>170</ele>
        <time>2013-09-22T14:28:19Z</time>
      </trkpt>
      <trkpt lat="47.899" lon="2.93793">
        <ele>170</ele>
        <time>2013-09-22T14:28:20Z</time>
      </trkpt>
      <trkpt lat="47.89907" lon="2.93759">
        <ele>171</ele>
        <time>2013-09-22T14:28:21Z</time>
      </trkpt>
      <trkpt lat="47.89913" lon="2.93727">
        <ele>172</ele>
        <time>2013-09-22T14:28:22Z</time>
      </trkpt>
      <trkpt lat="47.89922" lon="2.93695">
        <ele>172</ele>
        <time>2013-09-22T14:28:23Z</time>
      </trkpt>
      <trkpt lat="47.89932" lon="2.93667">
        <ele>172</ele>
        <time>2013-09-22T14:28:24Z</time>
      </trkpt>
      <trkpt lat="47.89944" lon="2.93638">
        <ele>173</ele>
        <time>2013-09-22T14:28:25Z</time>
      </trkpt>
      <trkpt lat="47.89956" lon="2.93608">
        <ele>174</ele>
        <time>2013-09-22T14:28:26Z</time>
      </trkpt>
      <trkpt lat="47.89967" lon="2.9358">
        <ele>174</ele>
        <time>2013-09-22T14:28:27Z</time>
      </trkpt>
      <trkpt lat="47.89978" lon="2.93551">
        <ele>175</ele>
        <time>2013-09-22T14:28:28Z</time>
      </trkpt>
      <trkpt lat="47.89989" lon="2.93524">
        <ele>175</ele>
        <time>2013-09-22T14:28:29Z</time>
      </trkpt>
      <trkpt lat="47.9" lon="2.93497">
        <ele>176</ele>
        <time>2013-09-22T14:28:30Z</time>
      </trkpt>
      <trkpt lat="47.9001" lon="2.93473">
        <ele>176</ele>
        <time>2013-09-22T14:28:31Z</time>
      </trkpt>
      <trkpt lat="47.90019" lon="2.93448">
        <ele>176</ele>
        <time>2013-09-22T14:28:32Z</time>
      </trkpt>
      <trkpt lat="47.90031" lon="2.93399">
        <ele>175</ele>
        <time>2013-09-22T14:28:34Z</time>
      </trkpt>
      <trkpt lat="47.90034" lon="2.9337">
        <ele>174</ele>
        <time>2013-09-22T14:28:35Z</time>
      </trkpt>
      <trkpt lat="47.90037" lon="2.93337">
        <ele>172</ele>
        <time>2013-09-22T14:28:36Z</time>
      </trkpt>
      <trkpt lat="47.90039" lon="2.93303">
        <ele>172</ele>
        <time>2013-09-22T14:28:37Z</time>
      </trkpt>
      <trkpt lat="47.90041" lon="2.93268">
        <ele>170</ele>
        <time>2013-09-22T14:28:38Z</time>
      </trkpt>
      <trkpt lat="47.90043" lon="2.93231">
        <ele>170</ele>
        <time>2013-09-22T14:28:39Z</time>
      </trkpt>
      <trkpt lat="47.90046" lon="2.93194">
        <ele>168</ele>
        <time>2013-09-22T14:28:40Z</time>
      </trkpt>
      <trkpt lat="47.90047" lon="2.93158">
        <ele>166</ele>
        <time>2013-09-22T14:28:41Z</time>
      </trkpt>
      <trkpt lat="47.9005" lon="2.93124">
        <ele>167</ele>
        <time>2013-09-22T14:28:42Z</time>
      </trkpt>
      <trkpt lat="47.90052" lon="2.93089">
        <ele>169</ele>
        <time>2013-09-22T14:28:43Z</time>
      </trkpt>
      <trkpt lat="47.90054" lon="2.93053">
        <ele>170</ele>
        <time>2013-09-22T14:28:44Z</time>
      </trkpt>
      <trkpt lat="47.90056" lon="2.93017">
        <ele>172</ele>
        <time>2013-09-22T14:28:45Z</time>
      </trkpt>
      <trkpt lat="47.90058" lon="2.92982">
        <ele>173</ele>
        <time>2013-09-22T14:28:46Z</time>
      </trkpt>
      <trkpt lat="47.9006" lon="2.92948">
        <ele>174</ele>
        <time>2013-09-22T14:28:47Z</time>
      </trkpt>
      <trkpt lat="47.90062" lon="2.92915">
        <ele>175</ele>
        <time>2013-09-22T14:28:48Z</time>
      </trkpt>
      <trkpt lat="47.90063" lon="2.92882">
        <ele>176</ele>
        <time>2013-09-22T14:28:49Z</time>
      </trkpt>
      <trkpt lat="47.90065" lon="2.92851">
        <ele>176</ele>
        <time>2013-09-22T14:28:50Z</time>
      </trkpt>
      <trkpt lat="47.90067" lon="2.92818">
        <ele>176</ele>
        <time>2013-09-22T14:28:51Z</time>
      </trkpt>
      <trkpt lat="47.90069" lon="2.92788">
        <ele>176</ele>
        <time>2013-09-22T14:28:52Z</time>
      </trkpt>
      <trkpt lat="47.9007" lon="2.92757">
        <ele>175</ele>
        <time>2013-09-22T14:28:53Z</time>
      </trkpt>
      <trkpt lat="47.90072" lon="2.92728">
        <ele>175</ele>
        <time>2013-09-22T14:28:54Z</time>
      </trkpt>
      <trkpt lat="47.90074" lon="2.92698">
        <ele>175</ele>
        <time>2013-09-22T14:28:55Z</time>
      </trkpt>
      <trkpt lat="47.90075" lon="2.92669">
        <ele>175</ele>
        <time>2013-09-22T14:28:56Z</time>
      </trkpt>
      <trkpt lat="47.90076" lon="2.92641">
        <ele>175</ele>
        <time>2013-09-22T14:28:57Z</time>
      </trkpt>
      <trkpt lat="47.90078" lon="2.92587">
        <ele>176</ele>
        <time>2013-09-22T14:28:59Z</time>
      </trkpt>
      <trkpt lat="47.90076" lon="2.92535">
        <ele>177</ele>
        <time>2013-09-22T14:29:01Z</time>
      </trkpt>
      <trkpt lat="47.90069" lon="2.92488">
        <ele>176</ele>
        <time>2013-09-22T14:29:03Z</time>
      </trkpt>
      <trkpt lat="47.90069" lon="2.92439">
        <ele>178</ele>
        <time>2013-09-22T14:29:05Z</time>
      </trkpt>
      <trkpt lat="47.90072" lon="2.92386">
        <ele>178</ele>
        <time>2013-09-22T14:29:07Z</time>
      </trkpt>
      <trkpt lat="47.90074" lon="2.92358">
        <ele>178</ele>
        <time>2013-09-22T14:29:08Z</time>
      </trkpt>
      <trkpt lat="47.90076" lon="2.92331">
        <ele>177</ele>
        <time>2013-09-22T14:29:09Z</time>
      </trkpt>
      <trkpt lat="47.90078" lon="2.92304">
        <ele>178</ele>
        <time>2013-09-22T14:29:10Z</time>
      </trkpt>
      <trkpt lat="47.9008" lon="2.92277">
        <ele>178</ele>
        <time>2013-09-22T14:29:11Z</time>
      </trkpt>
      <trkpt lat="47.90084" lon="2.92228">
        <ele>178</ele>
        <time>2013-09-22T14:29:13Z</time>
      </trkpt>
      <trkpt lat="47.90085" lon="2.92188">
        <ele>178</ele>
        <time>2013-09-22T14:29:15Z</time>
      </trkpt>
      <trkpt lat="47.90087" lon="2.92161">
        <ele>177</ele>
        <time>2013-09-22T14:29:17Z</time>
      </trkpt>
      <trkpt lat="47.90089" lon="2.92128">
        <ele>177</ele>
        <time>2013-09-22T14:29:24Z</time>
      </trkpt>
      <trkpt lat="47.90093" lon="2.92095">
        <ele>177</ele>
        <time>2013-09-22T14:29:26Z</time>
      </trkpt>
      <trkpt lat="47.90098" lon="2.92048">
        <ele>176</ele>
        <time>2013-09-22T14:29:28Z</time>
      </trkpt>
      <trkpt lat="47.901" lon="2.92022">
        <ele>175</ele>
        <time>2013-09-22T14:29:29Z</time>
      </trkpt>
      <trkpt lat="47.90099" lon="2.91994">
        <ele>174</ele>
        <time>2013-09-22T14:29:30Z</time>
      </trkpt>
      <trkpt lat="47.90098" lon="2.91965">
        <ele>174</ele>
        <time>2013-09-22T14:29:31Z</time>
      </trkpt>
      <trkpt lat="47.90096" lon="2.91936">
        <ele>173</ele>
        <time>2013-09-22T14:29:32Z</time>
      </trkpt>
      <trkpt lat="47.90093" lon="2.91906">
        <ele>173</ele>
        <time>2013-09-22T14:29:33Z</time>
      </trkpt>
      <trkpt lat="47.90092" lon="2.91878">
        <ele>173</ele>
        <time>2013-09-22T14:29:34Z</time>
      </trkpt>
      <trkpt lat="47.90093" lon="2.9185">
        <ele>172</ele>
        <time>2013-09-22T14:29:35Z</time>
      </trkpt>
      <trkpt lat="47.90099" lon="2.91821">
        <ele>173</ele>
        <time>2013-09-22T14:29:36Z</time>
      </trkpt>
      <trkpt lat="47.90102" lon="2.91791">
        <ele>171</ele>
        <time>2013-09-22T14:29:37Z</time>
      </trkpt>
      <trkpt lat="47.90107" lon="2.91761">
        <ele>171</ele>
        <time>2013-09-22T14:29:38Z</time>
      </trkpt>
      <trkpt lat="47.90113" lon="2.91728">
        <ele>172</ele>
        <time>2013-09-22T14:29:39Z</time>
      </trkpt>
      <trkpt lat="47.90119" lon="2.91695">
        <ele>173</ele>
        <time>2013-09-22T14:29:40Z</time>
      </trkpt>
      <trkpt lat="47.90125" lon="2.91663">
        <ele>174</ele>
        <time>2013-09-22T14:29:41Z</time>
      </trkpt>
      <trkpt lat="47.90131" lon="2.91629">
        <ele>174</ele>
        <time>2013-09-22T14:29:42Z</time>
      </trkpt>
      <trkpt lat="47.90136" lon="2.91594">
        <ele>175</ele>
        <time>2013-09-22T14:29:43Z</time>
      </trkpt>
      <trkpt lat="47.90144" lon="2.91559">
        <ele>176</ele>
        <time>2013-09-22T14:29:44Z</time>
      </trkpt>
      <trkpt lat="47.9015" lon="2.91525">
        <ele>177</ele>
        <time>2013-09-22T14:29:45Z</time>
      </trkpt>
      <trkpt lat="47.90157" lon="2.91489">
        <ele>177</ele>
        <time>2013-09-22T14:29:46Z</time>
      </trkpt>
      <trkpt lat="47.90163" lon="2.91454">
        <ele>177</ele>
        <time>2013-09-22T14:29:47Z</time>
      </trkpt>
      <trkpt lat="47.9017" lon="2.91419">
        <ele>178</ele>
        <time>2013-09-22T14:29:48Z</time>
      </trkpt>
      <trkpt lat="47.90176" lon="2.91384">
        <ele>179</ele>
        <time>2013-09-22T14:29:49Z</time>
      </trkpt>
      <trkpt lat="47.90183" lon="2.91349">
        <ele>178</ele>
        <time>2013-09-22T14:29:50Z</time>
      </trkpt>
      <trkpt lat="47.9019" lon="2.91314">
        <ele>179</ele>
        <time>2013-09-22T14:29:51Z</time>
      </trkpt>
      <trkpt lat="47.90197" lon="2.9128">
        <ele>179</ele>
        <time>2013-09-22T14:29:52Z</time>
      </trkpt>
      <trkpt lat="47.90203" lon="2.91246">
        <ele>180</ele>
        <time>2013-09-22T14:29:53Z</time>
      </trkpt>
      <trkpt lat="47.90209" lon="2.91215">
        <ele>181</ele>
        <time>2013-09-22T14:29:54Z</time>
      </trkpt>
      <trkpt lat="47.90214" lon="2.91185">
        <ele>181</ele>
        <time>2013-09-22T14:29:55Z</time>
      </trkpt>
      <trkpt lat="47.90219" lon="2.91157">
        <ele>181</ele>
        <time>2013-09-22T14:29:56Z</time>
      </trkpt>
      <trkpt lat="47.90225" lon="2.91129">
        <ele>183</ele>
        <time>2013-09-22T14:29:57Z</time>
      </trkpt>
      <trkpt lat="47.9023" lon="2.91099">
        <ele>184</ele>
        <time>2013-09-22T14:29:58Z</time>
      </trkpt>
      <trkpt lat="47.90236" lon="2.9107">
        <ele>184</ele>
        <time>2013-09-22T14:29:59Z</time>
      </trkpt>
      <trkpt lat="47.90242" lon="2.91039">
        <ele>184</ele>
        <time>2013-09-22T14:30:00Z</time>
      </trkpt>
      <trkpt lat="47.90247" lon="2.91009">
        <ele>184</ele>
        <time>2013-09-22T14:30:01Z</time>
      </trkpt>
      <trkpt lat="47.90255" lon="2.90978">
        <ele>184</ele>
        <time>2013-09-22T14:30:02Z</time>
      </trkpt>
      <trkpt lat="47.90263" lon="2.90948">
        <ele>183</ele>
        <time>2013-09-22T14:30:03Z</time>
      </trkpt>
      <trkpt lat="47.90272" lon="2.90919">
        <ele>183</ele>
        <time>2013-09-22T14:30:04Z</time>
      </trkpt>
      <trkpt lat="47.90281" lon="2.90891">
        <ele>183</ele>
        <time>2013-09-22T14:30:05Z</time>
      </trkpt>
      <trkpt lat="47.9029" lon="2.90862">
        <ele>183</ele>
        <time>2013-09-22T14:30:06Z</time>
      </trkpt>
      <trkpt lat="47.90298" lon="2.90837">
        <ele>183</ele>
        <time>2013-09-22T14:30:07Z</time>
      </trkpt>
      <trkpt lat="47.90307" lon="2.90812">
        <ele>182</ele>
        <time>2013-09-22T14:30:08Z</time>
      </trkpt>
      <trkpt lat="47.90316" lon="2.90788">
        <ele>182</ele>
        <time>2013-09-22T14:30:09Z</time>
      </trkpt>
      <trkpt lat="47.90328" lon="2.90765">
        <ele>182</ele>
        <time>2013-09-22T14:30:10Z</time>
      </trkpt>
      <trkpt lat="47.9034" lon="2.90741">
        <ele>181</ele>
        <time>2013-09-22T14:30:11Z</time>
      </trkpt>
      <trkpt lat="47.90353" lon="2.90717">
        <ele>181</ele>
        <time>2013-09-22T14:30:12Z</time>
      </trkpt>
      <trkpt lat="47.90366" lon="2.90691">
        <ele>180</ele>
        <time>2013-09-22T14:30:13Z</time>
      </trkpt>
      <trkpt lat="47.9038" lon="2.90666">
        <ele>179</ele>
        <time>2013-09-22T14:30:14Z</time>
      </trkpt>
      <trkpt lat="47.90394" lon="2.9064">
        <ele>178</ele>
        <time>2013-09-22T14:30:15Z</time>
      </trkpt>
      <trkpt lat="47.90409" lon="2.90613">
        <ele>178</ele>
        <time>2013-09-22T14:30:16Z</time>
      </trkpt>
      <trkpt lat="47.90423" lon="2.90588">
        <ele>177</ele>
        <time>2013-09-22T14:30:17Z</time>
      </trkpt>
      <trkpt lat="47.90436" lon="2.90562">
        <ele>176</ele>
        <time>2013-09-22T14:30:18Z</time>
      </trkpt>
      <trkpt lat="47.90449" lon="2.90537">
        <ele>176</ele>
        <time>2013-09-22T14:30:19Z</time>
      </trkpt>
      <trkpt lat="47.9046" lon="2.90511">
        <ele>176</ele>
        <time>2013-09-22T14:30:20Z</time>
      </trkpt>
      <trkpt lat="47.90471" lon="2.90483">
        <ele>175</ele>
        <time>2013-09-22T14:30:21Z</time>
      </trkpt>
      <trkpt lat="47.90481" lon="2.90454">
        <ele>176</ele>
        <time>2013-09-22T14:30:22Z</time>
      </trkpt>
      <trkpt lat="47.90489" lon="2.90428">
        <ele>177</ele>
        <time>2013-09-22T14:30:23Z</time>
      </trkpt>
      <trkpt lat="47.90496" lon="2.90402">
        <ele>178</ele>
        <time>2013-09-22T14:30:24Z</time>
      </trkpt>
      <trkpt lat="47.90507" lon="2.90358">
        <ele>178</ele>
        <time>2013-09-22T14:30:26Z</time>
      </trkpt>
      <trkpt lat="47.90516" lon="2.90323">
        <ele>178</ele>
        <time>2013-09-22T14:30:28Z</time>
      </trkpt>
      <trkpt lat="47.90525" lon="2.90296">
        <ele>174</ele>
        <time>2013-09-22T14:30:31Z</time>
      </trkpt>
      <trkpt lat="47.90536" lon="2.90271">
        <ele>174</ele>
        <time>2013-09-22T14:30:41Z</time>
      </trkpt>
      <trkpt lat="47.90552" lon="2.90246">
        <ele>173</ele>
        <time>2013-09-22T14:30:43Z</time>
      </trkpt>
      <trkpt lat="47.90573" lon="2.9022">
        <ele>173</ele>
        <time>2013-09-22T14:30:44Z</time>
      </trkpt>
      <trkpt lat="47.90587" lon="2.902">
        <ele>172</ele>
        <time>2013-09-22T14:30:45Z</time>
      </trkpt>
      <trkpt lat="47.90604" lon="2.90177">
        <ele>172</ele>
        <time>2013-09-22T14:30:46Z</time>
      </trkpt>
      <trkpt lat="47.90619" lon="2.90154">
        <ele>171</ele>
        <time>2013-09-22T14:30:47Z</time>
      </trkpt>
      <trkpt lat="47.90635" lon="2.90129">
        <ele>170</ele>
        <time>2013-09-22T14:30:48Z</time>
      </trkpt>
      <trkpt lat="47.90653" lon="2.90106">
        <ele>170</ele>
        <time>2013-09-22T14:30:49Z</time>
      </trkpt>
      <trkpt lat="47.9067" lon="2.90081">
        <ele>170</ele>
        <time>2013-09-22T14:30:50Z</time>
      </trkpt>
      <trkpt lat="47.90685" lon="2.90057">
        <ele>169</ele>
        <time>2013-09-22T14:30:51Z</time>
      </trkpt>
      <trkpt lat="47.90702" lon="2.90034">
        <ele>168</ele>
        <time>2013-09-22T14:30:52Z</time>
      </trkpt>
      <trkpt lat="47.90718" lon="2.90011">
        <ele>168</ele>
        <time>2013-09-22T14:30:53Z</time>
      </trkpt>
      <trkpt lat="47.90733" lon="2.89989">
        <ele>165</ele>
        <time>2013-09-22T14:30:54Z</time>
      </trkpt>
      <trkpt lat="47.90746" lon="2.89969">
        <ele>163</ele>
        <time>2013-09-22T14:30:55Z</time>
      </trkpt>
      <trkpt lat="47.90773" lon="2.89934">
        <ele>162</ele>
        <time>2013-09-22T14:30:57Z</time>
      </trkpt>
      <trkpt lat="47.90787" lon="2.89916">
        <ele>162</ele>
        <time>2013-09-22T14:30:58Z</time>
      </trkpt>
      <trkpt lat="47.90801" lon="2.89896">
        <ele>162</ele>
        <time>2013-09-22T14:30:59Z</time>
      </trkpt>
      <trkpt lat="47.90815" lon="2.89876">
        <ele>161</ele>
        <time>2013-09-22T14:31:00Z</time>
      </trkpt>
      <trkpt lat="47.90837" lon="2.89834">
        <ele>158</ele>
        <time>2013-09-22T14:31:02Z</time>
      </trkpt>
      <trkpt lat="47.90848" lon="2.89807">
        <ele>157</ele>
        <time>2013-09-22T14:31:03Z</time>
      </trkpt>
      <trkpt lat="47.90858" lon="2.89779">
        <ele>157</ele>
        <time>2013-09-22T14:31:04Z</time>
      </trkpt>
      <trkpt lat="47.90869" lon="2.8975">
        <ele>157</ele>
        <time>2013-09-22T14:31:05Z</time>
      </trkpt>
      <trkpt lat="47.90879" lon="2.89721">
        <ele>156</ele>
        <time>2013-09-22T14:31:06Z</time>
      </trkpt>
      <trkpt lat="47.9089" lon="2.89692">
        <ele>155</ele>
        <time>2013-09-22T14:31:07Z</time>
      </trkpt>
      <trkpt lat="47.90899" lon="2.89663">
        <ele>156</ele>
        <time>2013-09-22T14:31:08Z</time>
      </trkpt>
      <trkpt lat="47.90909" lon="2.89634">
        <ele>155</ele>
        <time>2013-09-22T14:31:09Z</time>
      </trkpt>
      <trkpt lat="47.9092" lon="2.89606">
        <ele>155</ele>
        <time>2013-09-22T14:31:10Z</time>
      </trkpt>
      <trkpt lat="47.9093" lon="2.89579">
        <ele>155</ele>
        <time>2013-09-22T14:31:11Z</time>
      </trkpt>
      <trkpt lat="47.90939" lon="2.89553">
        <ele>153</ele>
        <time>2013-09-22T14:31:12Z</time>
      </trkpt>
      <trkpt lat="47.90948" lon="2.89527">
        <ele>153</ele>
        <time>2013-09-22T14:31:13Z</time>
      </trkpt>
      <trkpt lat="47.90956" lon="2.89502">
        <ele>153</ele>
        <time>2013-09-22T14:31:14Z</time>
      </trkpt>
      <trkpt lat="47.90973" lon="2.89456">
        <ele>153</ele>
        <time>2013-09-22T14:31:16Z</time>
      </trkpt>
      <trkpt lat="47.90997" lon="2.89415">
        <ele>153</ele>
        <time>2013-09-22T14:31:18Z</time>
      </trkpt>
      <trkpt lat="47.91011" lon="2.89396">
        <ele>153</ele>
        <time>2013-09-22T14:31:19Z</time>
      </trkpt>
      <trkpt lat="47.91028" lon="2.89378">
        <ele>152</ele>
        <time>2013-09-22T14:31:20Z</time>
      </trkpt>
      <trkpt lat="47.91044" lon="2.89359">
        <ele>152</ele>
        <time>2013-09-22T14:31:21Z</time>
      </trkpt>
      <trkpt lat="47.9106" lon="2.89341">
        <ele>151</ele>
        <time>2013-09-22T14:31:22Z</time>
      </trkpt>
      <trkpt lat="47.91076" lon="2.89322">
        <ele>151</ele>
        <time>2013-09-22T14:31:23Z</time>
      </trkpt>
      <trkpt lat="47.91091" lon="2.89303">
        <ele>150</ele>
        <time>2013-09-22T14:31:24Z</time>
      </trkpt>
      <trkpt lat="47.91105" lon="2.89286">
        <ele>150</ele>
        <time>2013-09-22T14:31:25Z</time>
      </trkpt>
      <trkpt lat="47.91131" lon="2.89252">
        <ele>150</ele>
        <time>2013-09-22T14:31:27Z</time>
      </trkpt>
      <trkpt lat="47.91151" lon="2.89227">
        <ele>149</ele>
        <time>2013-09-22T14:31:29Z</time>
      </trkpt>
      <trkpt lat="47.91167" lon="2.89209">
        <ele>149</ele>
        <time>2013-09-22T14:31:31Z</time>
      </trkpt>
      <trkpt lat="47.91181" lon="2.89191">
        <ele>148</ele>
        <time>2013-09-22T14:31:38Z</time>
      </trkpt>
      <trkpt lat="47.91194" lon="2.89166">
        <ele>148</ele>
        <time>2013-09-22T14:31:40Z</time>
      </trkpt>
      <trkpt lat="47.91212" lon="2.89128">
        <ele>148</ele>
        <time>2013-09-22T14:31:42Z</time>
      </trkpt>
      <trkpt lat="47.91222" lon="2.89106">
        <ele>147</ele>
        <time>2013-09-22T14:31:43Z</time>
      </trkpt>
      <trkpt lat="47.91234" lon="2.89081">
        <ele>147</ele>
        <time>2013-09-22T14:31:44Z</time>
      </trkpt>
      <trkpt lat="47.91247" lon="2.89055">
        <ele>146</ele>
        <time>2013-09-22T14:31:45Z</time>
      </trkpt>
      <trkpt lat="47.91259" lon="2.89028">
        <ele>146</ele>
        <time>2013-09-22T14:31:46Z</time>
      </trkpt>
      <trkpt lat="47.91271" lon="2.89003">
        <ele>146</ele>
        <time>2013-09-22T14:31:47Z</time>
      </trkpt>
      <trkpt lat="47.91284" lon="2.88977">
        <ele>147</ele>
        <time>2013-09-22T14:31:48Z</time>
      </trkpt>
      <trkpt lat="47.91296" lon="2.8895">
        <ele>148</ele>
        <time>2013-09-22T14:31:49Z</time>
      </trkpt>
      <trkpt lat="47.91309" lon="2.88924">
        <ele>148</ele>
        <time>2013-09-22T14:31:50Z</time>
      </trkpt>
      <trkpt lat="47.91322" lon="2.88898">
        <ele>150</ele>
        <time>2013-09-22T14:31:51Z</time>
      </trkpt>
      <trkpt lat="47.91333" lon="2.88872">
        <ele>150</ele>
        <time>2013-09-22T14:31:52Z</time>
      </trkpt>
      <trkpt lat="47.91345" lon="2.88846">
        <ele>151</ele>
        <time>2013-09-22T14:31:53Z</time>
      </trkpt>
      <trkpt lat="47.91357" lon="2.88821">
        <ele>151</ele>
        <time>2013-09-22T14:31:54Z</time>
      </trkpt>
      <trkpt lat="47.91369" lon="2.88795">
        <ele>152</ele>
        <time>2013-09-22T14:31:55Z</time>
      </trkpt>
      <trkpt lat="47.91381" lon="2.8877">
        <ele>151</ele>
        <time>2013-09-22T14:31:56Z</time>
      </trkpt>
      <trkpt lat="47.91393" lon="2.88746">
        <ele>152</ele>
        <time>2013-09-22T14:31:57Z</time>
      </trkpt>
      <trkpt lat="47.91405" lon="2.88721">
        <ele>152</ele>
        <time>2013-09-22T14:31:58Z</time>
      </trkpt>
      <trkpt lat="47.91417" lon="2.88696">
        <ele>152</ele>
        <time>2013-09-22T14:31:59Z</time>
      </trkpt>
      <trkpt lat="47.91428" lon="2.88671">
        <ele>152</ele>
        <time>2013-09-22T14:32:00Z</time>
      </trkpt>
      <trkpt lat="47.9144" lon="2.88646">
        <ele>151</ele>
        <time>2013-09-22T14:32:01Z</time>
      </trkpt>
      <trkpt lat="47.91452" lon="2.88621">
        <ele>151</ele>
        <time>2013-09-22T14:32:02Z</time>
      </trkpt>
      <trkpt lat="47.91464" lon="2.88596">
        <ele>151</ele>
        <time>2013-09-22T14:32:03Z</time>
      </trkpt>
      <trkpt lat="47.91476" lon="2.88571">
        <ele>151</ele>
        <time>2013-09-22T14:32:04Z</time>
      </trkpt>
      <trkpt lat="47.91489" lon="2.88546">
        <ele>151</ele>
        <time>2013-09-22T14:32:05Z</time>
      </trkpt>
      <trkpt lat="47.91501" lon="2.8852">
        <ele>150</ele>
        <time>2013-09-22T14:32:06Z</time>
      </trkpt>
      <trkpt lat="47.91514" lon="2.88494">
        <ele>150</ele>
        <time>2013-09-22T14:32:07Z</time>
      </trkpt>
      <trkpt lat="47.91527" lon="2.88469">
        <ele>151</ele>
        <time>2013-09-22T14:32:08Z</time>
      </trkpt>
      <trkpt lat="47.9154" lon="2.88445">
        <ele>151</ele>
        <time>2013-09-22T14:32:09Z</time>
      </trkpt>
      <trkpt lat="47.91554" lon="2.88421">
        <ele>152</ele>
        <time>2013-09-22T14:32:10Z</time>
      </trkpt>
      <trkpt lat="47.91567" lon="2.88398">
        <ele>152</ele>
        <time>2013-09-22T14:32:11Z</time>
      </trkpt>
      <trkpt lat="47.91581" lon="2.88375">
        <ele>152</ele>
        <time>2013-09-22T14:32:12Z</time>
      </trkpt>
      <trkpt lat="47.91594" lon="2.88353">
        <ele>151</ele>
        <time>2013-09-22T14:32:13Z</time>
      </trkpt>
      <trkpt lat="47.91609" lon="2.88331">
        <ele>150</ele>
        <time>2013-09-22T14:32:14Z</time>
      </trkpt>
      <trkpt lat="47.91623" lon="2.8831">
        <ele>149</ele>
        <time>2013-09-22T14:32:15Z</time>
      </trkpt>
      <trkpt lat="47.91637" lon="2.88288">
        <ele>149</ele>
        <time>2013-09-22T14:32:16Z</time>
      </trkpt>
      <trkpt lat="47.91652" lon="2.88269">
        <ele>148</ele>
        <time>2013-09-22T14:32:17Z</time>
      </trkpt>
      <trkpt lat="47.91668" lon="2.88249">
        <ele>148</ele>
        <time>2013-09-22T14:32:18Z</time>
      </trkpt>
      <trkpt lat="47.91685" lon="2.88233">
        <ele>147</ele>
        <time>2013-09-22T14:32:19Z</time>
      </trkpt>
      <trkpt lat="47.91703" lon="2.88219">
        <ele>146</ele>
        <time>2013-09-22T14:32:20Z</time>
      </trkpt>
      <trkpt lat="47.91721" lon="2.88206">
        <ele>145</ele>
        <time>2013-09-22T14:32:21Z</time>
      </trkpt>
      <trkpt lat="47.91741" lon="2.88193">
        <ele>146</ele>
        <time>2013-09-22T14:32:22Z</time>
      </trkpt>
      <trkpt lat="47.9176" lon="2.8818">
        <ele>145</ele>
        <time>2013-09-22T14:32:23Z</time>
      </trkpt>
      <trkpt lat="47.9178" lon="2.88166">
        <ele>145</ele>
        <time>2013-09-22T14:32:24Z</time>
      </trkpt>
      <trkpt lat="47.91799" lon="2.88152">
        <ele>144</ele>
        <time>2013-09-22T14:32:25Z</time>
      </trkpt>
      <trkpt lat="47.91819" lon="2.88138">
        <ele>144</ele>
        <time>2013-09-22T14:32:26Z</time>
      </trkpt>
      <trkpt lat="47.9184" lon="2.88123">
        <ele>144</ele>
        <time>2013-09-22T14:32:27Z</time>
      </trkpt>
      <trkpt lat="47.91861" lon="2.8811">
        <ele>145</ele>
        <time>2013-09-22T14:32:28Z</time>
      </trkpt>
      <trkpt lat="47.91882" lon="2.88096">
        <ele>146</ele>
        <time>2013-09-22T14:32:29Z</time>
      </trkpt>
      <trkpt lat="47.91902" lon="2.88081">
        <ele>146</ele>
        <time>2013-09-22T14:32:30Z</time>
      </trkpt>
      <trkpt lat="47.91922" lon="2.88067">
        <ele>146</ele>
        <time>2013-09-22T14:32:31Z</time>
      </trkpt>
      <trkpt lat="47.91942" lon="2.88053">
        <ele>146</ele>
        <time>2013-09-22T14:32:32Z</time>
      </trkpt>
      <trkpt lat="47.91961" lon="2.8804">
        <ele>146</ele>
        <time>2013-09-22T14:32:33Z</time>
      </trkpt>
      <trkpt lat="47.91979" lon="2.88027">
        <ele>145</ele>
        <time>2013-09-22T14:32:34Z</time>
      </trkpt>
      <trkpt lat="47.91997" lon="2.88014">
        <ele>144</ele>
        <time>2013-09-22T14:32:35Z</time>
      </trkpt>
      <trkpt lat="47.92014" lon="2.88002">
        <ele>144</ele>
        <time>2013-09-22T14:32:36Z</time>
      </trkpt>
      <trkpt lat="47.92031" lon="2.8799">
        <ele>144</ele>
        <time>2013-09-22T14:32:37Z</time>
      </trkpt>
      <trkpt lat="47.9206" lon="2.87967">
        <ele>143</ele>
        <time>2013-09-22T14:32:39Z</time>
      </trkpt>
      <trkpt lat="47.92084" lon="2.87933">
        <ele>142</ele>
        <time>2013-09-22T14:32:41Z</time>
      </trkpt>
      <trkpt lat="47.92095" lon="2.8791">
        <ele>142</ele>
        <time>2013-09-22T14:32:42Z</time>
      </trkpt>
      <trkpt lat="47.92105" lon="2.87886">
        <ele>141</ele>
        <time>2013-09-22T14:32:43Z</time>
      </trkpt>
      <trkpt lat="47.92115" lon="2.87862">
        <ele>141</ele>
        <time>2013-09-22T14:32:44Z</time>
      </trkpt>
      <trkpt lat="47.92123" lon="2.87836">
        <ele>140</ele>
        <time>2013-09-22T14:32:45Z</time>
      </trkpt>
      <trkpt lat="47.92131" lon="2.87809">
        <ele>140</ele>
        <time>2013-09-22T14:32:46Z</time>
      </trkpt>
      <trkpt lat="47.92137" lon="2.87782">
        <ele>140</ele>
        <time>2013-09-22T14:32:47Z</time>
      </trkpt>
      <trkpt lat="47.92144" lon="2.87756">
        <ele>140</ele>
        <time>2013-09-22T14:32:48Z</time>
      </trkpt>
      <trkpt lat="47.92156" lon="2.87707">
        <ele>140</ele>
        <time>2013-09-22T14:32:50Z</time>
      </trkpt>
      <trkpt lat="47.92167" lon="2.8766">
        <ele>140</ele>
        <time>2013-09-22T14:32:52Z</time>
      </trkpt>
      <trkpt lat="47.92178" lon="2.87614">
        <ele>140</ele>
        <time>2013-09-22T14:32:54Z</time>
      </trkpt>
      <trkpt lat="47.92185" lon="2.87575">
        <ele>140</ele>
        <time>2013-09-22T14:32:56Z</time>
      </trkpt>
      <trkpt lat="47.92189" lon="2.87526">
        <ele>139</ele>
        <time>2013-09-22T14:32:58Z</time>
      </trkpt>
      <trkpt lat="47.92192" lon="2.87495">
        <ele>139</ele>
        <time>2013-09-22T14:32:59Z</time>
      </trkpt>
      <trkpt lat="47.92196" lon="2.87461">
        <ele>139</ele>
        <time>2013-09-22T14:33:00Z</time>
      </trkpt>
      <trkpt lat="47.92201" lon="2.87427">
        <ele>138</ele>
        <time>2013-09-22T14:33:01Z</time>
      </trkpt>
      <trkpt lat="47.92208" lon="2.87392">
        <ele>138</ele>
        <time>2013-09-22T14:33:02Z</time>
      </trkpt>
      <trkpt lat="47.92215" lon="2.87356">
        <ele>138</ele>
        <time>2013-09-22T14:33:03Z</time>
      </trkpt>
      <trkpt lat="47.92222" lon="2.87319">
        <ele>137</ele>
        <time>2013-09-22T14:33:04Z</time>
      </trkpt>
      <trkpt lat="47.92227" lon="2.87281">
        <ele>137</ele>
        <time>2013-09-22T14:33:05Z</time>
      </trkpt>
      <trkpt lat="47.92234" lon="2.87242">
        <ele>137</ele>
        <time>2013-09-22T14:33:06Z</time>
      </trkpt>
      <trkpt lat="47.92242" lon="2.87205">
        <ele>136</ele>
        <time>2013-09-22T14:33:07Z</time>
      </trkpt>
      <trkpt lat="47.9225" lon="2.87167">
        <ele>136</ele>
        <time>2013-09-22T14:33:08Z</time>
      </trkpt>
      <trkpt lat="47.92258" lon="2.8713">
        <ele>136</ele>
        <time>2013-09-22T14:33:09Z</time>
      </trkpt>
      <trkpt lat="47.92266" lon="2.87095">
        <ele>136</ele>
        <time>2013-09-22T14:33:10Z</time>
      </trkpt>
      <trkpt lat="47.92273" lon="2.8706">
        <ele>136</ele>
        <time>2013-09-22T14:33:11Z</time>
      </trkpt>
      <trkpt lat="47.92282" lon="2.87024">
        <ele>136</ele>
        <time>2013-09-22T14:33:12Z</time>
      </trkpt>
      <trkpt lat="47.92291" lon="2.86988">
        <ele>136</ele>
        <time>2013-09-22T14:33:13Z</time>
      </trkpt>
      <trkpt lat="47.923" lon="2.86951">
        <ele>136</ele>
        <time>2013-09-22T14:33:14Z</time>
      </trkpt>
      <trkpt lat="47.92309" lon="2.86915">
        <ele>136</ele>
        <time>2013-09-22T14:33:15Z</time>
      </trkpt>
      <trkpt lat="47.92318" lon="2.86881">
        <ele>135</ele>
        <time>2013-09-22T14:33:16Z</time>
      </trkpt>
      <trkpt lat="47.92326" lon="2.86848">
        <ele>135</ele>
        <time>2013-09-22T14:33:17Z</time>
      </trkpt>
      <trkpt lat="47.92335" lon="2.86815">
        <ele>135</ele>
        <time>2013-09-22T14:33:18Z</time>
      </trkpt>
      <trkpt lat="47.92343" lon="2.86782">
        <ele>134</ele>
        <time>2013-09-22T14:33:19Z</time>
      </trkpt>
      <trkpt lat="47.92351" lon="2.86751">
        <ele>134</ele>
        <time>2013-09-22T14:33:20Z</time>
      </trkpt>
      <trkpt lat="47.92362" lon="2.8672">
        <ele>133</ele>
        <time>2013-09-22T14:33:21Z</time>
      </trkpt>
      <trkpt lat="47.92374" lon="2.86689">
        <ele>132</ele>
        <time>2013-09-22T14:33:22Z</time>
      </trkpt>
      <trkpt lat="47.92388" lon="2.86659">
        <ele>132</ele>
        <time>2013-09-22T14:33:23Z</time>
      </trkpt>
      <trkpt lat="47.92402" lon="2.86631">
        <ele>132</ele>
        <time>2013-09-22T14:33:24Z</time>
      </trkpt>
      <trkpt lat="47.92416" lon="2.86603">
        <ele>133</ele>
        <time>2013-09-22T14:33:25Z</time>
      </trkpt>
      <trkpt lat="47.92432" lon="2.86575">
        <ele>134</ele>
        <time>2013-09-22T14:33:26Z</time>
      </trkpt>
      <trkpt lat="47.92447" lon="2.86548">
        <ele>135</ele>
        <time>2013-09-22T14:33:27Z</time>
      </trkpt>
      <trkpt lat="47.92463" lon="2.86523">
        <ele>135</ele>
        <time>2013-09-22T14:33:28Z</time>
      </trkpt>
      <trkpt lat="47.92479" lon="2.86499">
        <ele>135</ele>
        <time>2013-09-22T14:33:29Z</time>
      </trkpt>
      <trkpt lat="47.92497" lon="2.86476">
        <ele>136</ele>
        <time>2013-09-22T14:33:30Z</time>
      </trkpt>
      <trkpt lat="47.92515" lon="2.86456">
        <ele>136</ele>
        <time>2013-09-22T14:33:31Z</time>
      </trkpt>
      <trkpt lat="47.9253" lon="2.8644">
        <ele>136</ele>
        <time>2013-09-22T14:33:32Z</time>
      </trkpt>
      <trkpt lat="47.9256" lon="2.86423">
        <ele>136</ele>
        <time>2013-09-22T14:33:34Z</time>
      </trkpt>
      <trkpt lat="47.92592" lon="2.86428">
        <ele>136</ele>
        <time>2013-09-22T14:33:36Z</time>
      </trkpt>
      <trkpt lat="47.92626" lon="2.86438">
        <ele>135</ele>
        <time>2013-09-22T14:33:38Z</time>
      </trkpt>
      <trkpt lat="47.92645" lon="2.86435">
        <ele>135</ele>
        <time>2013-09-22T14:33:39Z</time>
      </trkpt>
      <trkpt lat="47.92664" lon="2.86429">
        <ele>135</ele>
        <time>2013-09-22T14:33:40Z</time>
      </trkpt>
      <trkpt lat="47.92685" lon="2.86425">
        <ele>136</ele>
        <time>2013-09-22T14:33:41Z</time>
      </trkpt>
      <trkpt lat="47.92705" lon="2.86424">
        <ele>136</ele>
        <time>2013-09-22T14:33:42Z</time>
      </trkpt>
      <trkpt lat="47.92723" lon="2.86423">
        <ele>136</ele>
        <time>2013-09-22T14:33:43Z</time>
      </trkpt>
      <trkpt lat="47.92757" lon="2.86429">
        <ele>136</ele>
        <time>2013-09-22T14:33:45Z</time>
      </trkpt>
      <trkpt lat="47.9279" lon="2.86451">
        <ele>137</ele>
        <time>2013-09-22T14:33:47Z</time>
      </trkpt>
      <trkpt lat="47.92827" lon="2.8646">
        <ele>138</ele>
        <time>2013-09-22T14:33:49Z</time>
      </trkpt>
      <trkpt lat="47.92847" lon="2.86461">
        <ele>138</ele>
        <time>2013-09-22T14:33:50Z</time>
      </trkpt>
      <trkpt lat="47.92869" lon="2.86464">
        <ele>138</ele>
        <time>2013-09-22T14:33:51Z</time>
      </trkpt>
      <trkpt lat="47.92891" lon="2.86468">
        <ele>137</ele>
        <time>2013-09-22T14:33:52Z</time>
      </trkpt>
      <trkpt lat="47.92912" lon="2.86471">
        <ele>137</ele>
        <time>2013-09-22T14:33:53Z</time>
      </trkpt>
      <trkpt lat="47.92933" lon="2.86472">
        <ele>138</ele>
        <time>2013-09-22T14:33:54Z</time>
      </trkpt>
      <trkpt lat="47.92953" lon="2.86472">
        <ele>138</ele>
        <time>2013-09-22T14:33:55Z</time>
      </trkpt>
      <trkpt lat="47.92973" lon="2.86474">
        <ele>137</ele>
        <time>2013-09-22T14:33:56Z</time>
      </trkpt>
      <trkpt lat="47.92994" lon="2.86481">
        <ele>136</ele>
        <time>2013-09-22T14:33:57Z</time>
      </trkpt>
      <trkpt lat="47.93015" lon="2.86491">
        <ele>136</ele>
        <time>2013-09-22T14:33:58Z</time>
      </trkpt>
      <trkpt lat="47.93034" lon="2.86504">
        <ele>136</ele>
        <time>2013-09-22T14:33:59Z</time>
      </trkpt>
      <trkpt lat="47.93053" lon="2.86514">
        <ele>136</ele>
        <time>2013-09-22T14:34:00Z</time>
      </trkpt>
      <trkpt lat="47.93073" lon="2.86522">
        <ele>136</ele>
        <time>2013-09-22T14:34:01Z</time>
      </trkpt>
      <trkpt lat="47.93093" lon="2.86529">
        <ele>137</ele>
        <time>2013-09-22T14:34:02Z</time>
      </trkpt>
      <trkpt lat="47.93114" lon="2.86529">
        <ele>136</ele>
        <time>2013-09-22T14:34:03Z</time>
      </trkpt>
      <trkpt lat="47.93136" lon="2.86528">
        <ele>135</ele>
        <time>2013-09-22T14:34:04Z</time>
      </trkpt>
      <trkpt lat="47.93157" lon="2.86528">
        <ele>135</ele>
        <time>2013-09-22T14:34:05Z</time>
      </trkpt>
      <trkpt lat="47.93178" lon="2.86527">
        <ele>135</ele>
        <time>2013-09-22T14:34:06Z</time>
      </trkpt>
      <trkpt lat="47.932" lon="2.86527">
        <ele>135</ele>
        <time>2013-09-22T14:34:07Z</time>
      </trkpt>
      <trkpt lat="47.9322" lon="2.86527">
        <ele>135</ele>
        <time>2013-09-22T14:34:08Z</time>
      </trkpt>
      <trkpt lat="47.93251" lon="2.86526">
        <ele>134</ele>
        <time>2013-09-22T14:34:10Z</time>
      </trkpt>
      <trkpt lat="47.9327" lon="2.86515">
        <ele>134</ele>
        <time>2013-09-22T14:34:12Z</time>
      </trkpt>
      <trkpt lat="47.9328" lon="2.86482">
        <ele>133</ele>
        <time>2013-09-22T14:34:14Z</time>
      </trkpt>
      <trkpt lat="47.93287" lon="2.86432">
        <ele>134</ele>
        <time>2013-09-22T14:34:16Z</time>
      </trkpt>
      <trkpt lat="47.93291" lon="2.86404">
        <ele>134</ele>
        <time>2013-09-22T14:34:17Z</time>
      </trkpt>
      <trkpt lat="47.93299" lon="2.86355">
        <ele>134</ele>
        <time>2013-09-22T14:34:19Z</time>
      </trkpt>
      <trkpt lat="47.93311" lon="2.86314">
        <ele>133</ele>
        <time>2013-09-22T14:34:21Z</time>
      </trkpt>
      <trkpt lat="47.93335" lon="2.86288">
        <ele>132</ele>
        <time>2013-09-22T14:34:23Z</time>
      </trkpt>
      <trkpt lat="47.93371" lon="2.86276">
        <ele>132</ele>
        <time>2013-09-22T14:34:25Z</time>
      </trkpt>
      <trkpt lat="47.9339" lon="2.86271">
        <ele>132</ele>
        <time>2013-09-22T14:34:26Z</time>
      </trkpt>
      <trkpt lat="47.9341" lon="2.86266">
        <ele>132</ele>
        <time>2013-09-22T14:34:27Z</time>
      </trkpt>
      <trkpt lat="47.93431" lon="2.86264">
        <ele>132</ele>
        <time>2013-09-22T14:34:28Z</time>
      </trkpt>
      <trkpt lat="47.93453" lon="2.86263">
        <ele>131</ele>
        <time>2013-09-22T14:34:29Z</time>
      </trkpt>
      <trkpt lat="47.93474" lon="2.86262">
        <ele>131</ele>
        <time>2013-09-22T14:34:30Z</time>
      </trkpt>
      <trkpt lat="47.93496" lon="2.86262">
        <ele>130</ele>
        <time>2013-09-22T14:34:31Z</time>
      </trkpt>
      <trkpt lat="47.93517" lon="2.86261">
        <ele>129</ele>
        <time>2013-09-22T14:34:32Z</time>
      </trkpt>
      <trkpt lat="47.93538" lon="2.8626">
        <ele>130</ele>
        <time>2013-09-22T14:34:33Z</time>
      </trkpt>
      <trkpt lat="47.93559" lon="2.8626">
        <ele>130</ele>
        <time>2013-09-22T14:34:34Z</time>
      </trkpt>
      <trkpt lat="47.93595" lon="2.86262">
        <ele>129</ele>
        <time>2013-09-22T14:34:36Z</time>
      </trkpt>
      <trkpt lat="47.93615" lon="2.86264">
        <ele>129</ele>
        <time>2013-09-22T14:34:37Z</time>
      </trkpt>
      <trkpt lat="47.93634" lon="2.86266">
        <ele>129</ele>
        <time>2013-09-22T14:34:38Z</time>
      </trkpt>
      <trkpt lat="47.93654" lon="2.86268">
        <ele>129</ele>
        <time>2013-09-22T14:34:39Z</time>
      </trkpt>
      <trkpt lat="47.93675" lon="2.86271">
        <ele>129</ele>
        <time>2013-09-22T14:34:40Z</time>
      </trkpt>
      <trkpt lat="47.93697" lon="2.86273">
        <ele>129</ele>
        <time>2013-09-22T14:34:41Z</time>
      </trkpt>
      <trkpt lat="47.93718" lon="2.86275">
        <ele>129</ele>
        <time>2013-09-22T14:34:42Z</time>
      </trkpt>
      <trkpt lat="47.9374" lon="2.86277">
        <ele>129</ele>
        <time>2013-09-22T14:34:43Z</time>
      </trkpt>
      <trkpt lat="47.93762" lon="2.86279">
        <ele>129</ele>
        <time>2013-09-22T14:34:44Z</time>
      </trkpt>
      <trkpt lat="47.93783" lon="2.86282">
        <ele>129</ele>
        <time>2013-09-22T14:34:45Z</time>
      </trkpt>
      <trkpt lat="47.93804" lon="2.86285">
        <ele>128</ele>
        <time>2013-09-22T14:34:46Z</time>
      </trkpt>
      <trkpt lat="47.93823" lon="2.86289">
        <ele>128</ele>
        <time>2013-09-22T14:34:47Z</time>
      </trkpt>
      <trkpt lat="47.93841" lon="2.86294">
        <ele>128</ele>
        <time>2013-09-22T14:34:48Z</time>
      </trkpt>
      <trkpt lat="47.93892" lon="2.86295">
        <ele>127</ele>
        <time>2013-09-22T14:34:51Z</time>
      </trkpt>
      <trkpt lat="47.93909" lon="2.86282">
        <ele>128</ele>
        <time>2013-09-22T14:34:52Z</time>
      </trkpt>
      <trkpt lat="47.93923" lon="2.86263">
        <ele>127</ele>
        <time>2013-09-22T14:34:53Z</time>
      </trkpt>
      <trkpt lat="47.93937" lon="2.86243">
        <ele>127</ele>
        <time>2013-09-22T14:34:54Z</time>
      </trkpt>
      <trkpt lat="47.93951" lon="2.86224">
        <ele>127</ele>
        <time>2013-09-22T14:34:55Z</time>
      </trkpt>
      <trkpt lat="47.93976" lon="2.86189">
        <ele>126</ele>
        <time>2013-09-22T14:34:57Z</time>
      </trkpt>
      <trkpt lat="47.94003" lon="2.86161">
        <ele>124</ele>
        <time>2013-09-22T14:34:59Z</time>
      </trkpt>
      <trkpt lat="47.94029" lon="2.86134">
        <ele>124</ele>
        <time>2013-09-22T14:35:01Z</time>
      </trkpt>
      <trkpt lat="47.94047" lon="2.86117">
        <ele>123</ele>
        <time>2013-09-22T14:35:02Z</time>
      </trkpt>
      <trkpt lat="47.94068" lon="2.861">
        <ele>122</ele>
        <time>2013-09-22T14:35:03Z</time>
      </trkpt>
      <trkpt lat="47.94091" lon="2.86086">
        <ele>121</ele>
        <time>2013-09-22T14:35:04Z</time>
      </trkpt>
      <trkpt lat="47.94115" lon="2.86071">
        <ele>120</ele>
        <time>2013-09-22T14:35:05Z</time>
      </trkpt>
      <trkpt lat="47.94139" lon="2.86052">
        <ele>120</ele>
        <time>2013-09-22T14:35:06Z</time>
      </trkpt>
      <trkpt lat="47.94163" lon="2.86034">
        <ele>119</ele>
        <time>2013-09-22T14:35:07Z</time>
      </trkpt>
      <trkpt lat="47.94184" lon="2.86015">
        <ele>118</ele>
        <time>2013-09-22T14:35:08Z</time>
      </trkpt>
      <trkpt lat="47.94205" lon="2.85998">
        <ele>117</ele>
        <time>2013-09-22T14:35:09Z</time>
      </trkpt>
      <trkpt lat="47.94226" lon="2.85984">
        <ele>116</ele>
        <time>2013-09-22T14:35:10Z</time>
      </trkpt>
      <trkpt lat="47.94246" lon="2.85975">
        <ele>115</ele>
        <time>2013-09-22T14:35:11Z</time>
      </trkpt>
      <trkpt lat="47.94268" lon="2.8597">
        <ele>114</ele>
        <time>2013-09-22T14:35:12Z</time>
      </trkpt>
      <trkpt lat="47.9429" lon="2.85969">
        <ele>113</ele>
        <time>2013-09-22T14:35:13Z</time>
      </trkpt>
      <trkpt lat="47.94314" lon="2.8597">
        <ele>111</ele>
        <time>2013-09-22T14:35:14Z</time>
      </trkpt>
      <trkpt lat="47.94338" lon="2.85969">
        <ele>109</ele>
        <time>2013-09-22T14:35:15Z</time>
      </trkpt>
      <trkpt lat="47.9436" lon="2.85965">
        <ele>108</ele>
        <time>2013-09-22T14:35:16Z</time>
      </trkpt>
      <trkpt lat="47.9438" lon="2.8596">
        <ele>106</ele>
        <time>2013-09-22T14:35:17Z</time>
      </trkpt>
      <trkpt lat="47.944" lon="2.85954">
        <ele>106</ele>
        <time>2013-09-22T14:35:18Z</time>
      </trkpt>
      <trkpt lat="47.94418" lon="2.85942">
        <ele>106</ele>
        <time>2013-09-22T14:35:19Z</time>
      </trkpt>
      <trkpt lat="47.94431" lon="2.8592">
        <ele>105</ele>
        <time>2013-09-22T14:35:20Z</time>
      </trkpt>
      <trkpt lat="47.94446" lon="2.85898">
        <ele>105</ele>
        <time>2013-09-22T14:35:21Z</time>
      </trkpt>
      <trkpt lat="47.94461" lon="2.85871">
        <ele>106</ele>
        <time>2013-09-22T14:35:22Z</time>
      </trkpt>
      <trkpt lat="47.94474" lon="2.85845">
        <ele>106</ele>
        <time>2013-09-22T14:35:23Z</time>
      </trkpt>
      <trkpt lat="47.94486" lon="2.85817">
        <ele>105</ele>
        <time>2013-09-22T14:35:24Z</time>
      </trkpt>
      <trkpt lat="47.94494" lon="2.85786">
        <ele>105</ele>
        <time>2013-09-22T14:35:25Z</time>
      </trkpt>
      <trkpt lat="47.94503" lon="2.85755">
        <ele>105</ele>
        <time>2013-09-22T14:35:26Z</time>
      </trkpt>
      <trkpt lat="47.9451" lon="2.85726">
        <ele>105</ele>
        <time>2013-09-22T14:35:27Z</time>
      </trkpt>
      <trkpt lat="47.94517" lon="2.85701">
        <ele>105</ele>
        <time>2013-09-22T14:35:28Z</time>
      </trkpt>
      <trkpt lat="47.94539" lon="2.85661">
        <ele>105</ele>
        <time>2013-09-22T14:35:30Z</time>
      </trkpt>
      <trkpt lat="47.94553" lon="2.8564">
        <ele>105</ele>
        <time>2013-09-22T14:35:31Z</time>
      </trkpt>
      <trkpt lat="47.94566" lon="2.85616">
        <ele>105</ele>
        <time>2013-09-22T14:35:32Z</time>
      </trkpt>
      <trkpt lat="47.94579" lon="2.85589">
        <ele>105</ele>
        <time>2013-09-22T14:35:33Z</time>
      </trkpt>
      <trkpt lat="47.94589" lon="2.85561">
        <ele>104</ele>
        <time>2013-09-22T14:35:34Z</time>
      </trkpt>
      <trkpt lat="47.94594" lon="2.85531">
        <ele>105</ele>
        <time>2013-09-22T14:35:35Z</time>
      </trkpt>
      <trkpt lat="47.94604" lon="2.85504">
        <ele>104</ele>
        <time>2013-09-22T14:35:36Z</time>
      </trkpt>
      <trkpt lat="47.94614" lon="2.85479">
        <ele>105</ele>
        <time>2013-09-22T14:35:37Z</time>
      </trkpt>
      <trkpt lat="47.94626" lon="2.85455">
        <ele>105</ele>
        <time>2013-09-22T14:35:38Z</time>
      </trkpt>
      <trkpt lat="47.94636" lon="2.85431">
        <ele>105</ele>
        <time>2013-09-22T14:35:39Z</time>
      </trkpt>
      <trkpt lat="47.94646" lon="2.85407">
        <ele>105</ele>
        <time>2013-09-22T14:35:40Z</time>
      </trkpt>
      <trkpt lat="47.94654" lon="2.85383">
        <ele>105</ele>
        <time>2013-09-22T14:35:41Z</time>
      </trkpt>
      <trkpt lat="47.9466" lon="2.85357">
        <ele>105</ele>
        <time>2013-09-22T14:35:42Z</time>
      </trkpt>
      <trkpt lat="47.94666" lon="2.85331">
        <ele>105</ele>
        <time>2013-09-22T14:35:43Z</time>
      </trkpt>
      <trkpt lat="47.94673" lon="2.85284">
        <ele>107</ele>
        <time>2013-09-22T14:35:45Z</time>
      </trkpt>
      <trkpt lat="47.9468" lon="2.85239">
        <ele>108</ele>
        <time>2013-09-22T14:35:47Z</time>
      </trkpt>
      <trkpt lat="47.94688" lon="2.85197">
        <ele>108</ele>
        <time>2013-09-22T14:35:49Z</time>
      </trkpt>
      <trkpt lat="47.94694" lon="2.85169">
        <ele>108</ele>
        <time>2013-09-22T14:35:51Z</time>
      </trkpt>
      <trkpt lat="47.94702" lon="2.85141">
        <ele>108</ele>
        <time>2013-09-22T14:35:53Z</time>
      </trkpt>
      <trkpt lat="47.9471" lon="2.85107">
        <ele>109</ele>
        <time>2013-09-22T14:35:55Z</time>
      </trkpt>
      <trkpt lat="47.94721" lon="2.8507">
        <ele>111</ele>
        <time>2013-09-22T14:35:57Z</time>
      </trkpt>
      <trkpt lat="47.94729" lon="2.85033">
        <ele>107</ele>
        <time>2013-09-22T14:35:59Z</time>
      </trkpt>
      <trkpt lat="47.94738" lon="2.84993">
        <ele>108</ele>
        <time>2013-09-22T14:36:01Z</time>
      </trkpt>
      <trkpt lat="47.94745" lon="2.84953">
        <ele>111</ele>
        <time>2013-09-22T14:36:03Z</time>
      </trkpt>
      <trkpt lat="47.9475" lon="2.84913">
        <ele>111</ele>
        <time>2013-09-22T14:36:05Z</time>
      </trkpt>
      <trkpt lat="47.94756" lon="2.84874">
        <ele>113</ele>
        <time>2013-09-22T14:36:07Z</time>
      </trkpt>
      <trkpt lat="47.94759" lon="2.84835">
        <ele>112</ele>
        <time>2013-09-22T14:36:09Z</time>
      </trkpt>
      <trkpt lat="47.94761" lon="2.84792">
        <ele>112</ele>
        <time>2013-09-22T14:36:11Z</time>
      </trkpt>
      <trkpt lat="47.9476" lon="2.84755">
        <ele>112</ele>
        <time>2013-09-22T14:36:13Z</time>
      </trkpt>
      <trkpt lat="47.94758" lon="2.84725">
        <ele>109</ele>
        <time>2013-09-22T14:36:15Z</time>
      </trkpt>
      <trkpt lat="47.94757" lon="2.84697">
        <ele>108</ele>
        <time>2013-09-22T14:36:17Z</time>
      </trkpt>
      <trkpt lat="47.94765" lon="2.84666">
        <ele>109</ele>
        <time>2013-09-22T14:36:20Z</time>
      </trkpt>
      <trkpt lat="47.94788" lon="2.84657">
        <ele>110</ele>
        <time>2013-09-22T14:36:22Z</time>
      </trkpt>
      <trkpt lat="47.94819" lon="2.84642">
        <ele>110</ele>
        <time>2013-09-22T14:36:24Z</time>
      </trkpt>
      <trkpt lat="47.94856" lon="2.84623">
        <ele>109</ele>
        <time>2013-09-22T14:36:26Z</time>
      </trkpt>
      <trkpt lat="47.94875" lon="2.84614">
        <ele>108</ele>
        <time>2013-09-22T14:36:27Z</time>
      </trkpt>
      <trkpt lat="47.94892" lon="2.84603">
        <ele>107</ele>
        <time>2013-09-22T14:36:28Z</time>
      </trkpt>
      <trkpt lat="47.9491" lon="2.84592">
        <ele>107</ele>
        <time>2013-09-22T14:36:29Z</time>
      </trkpt>
      <trkpt lat="47.94929" lon="2.8459">
        <ele>109</ele>
        <time>2013-09-22T14:36:30Z</time>
      </trkpt>
      <trkpt lat="47.94949" lon="2.84583">
        <ele>109</ele>
        <time>2013-09-22T14:36:31Z</time>
      </trkpt>
      <trkpt lat="47.94966" lon="2.84575">
        <ele>108</ele>
        <time>2013-09-22T14:36:32Z</time>
      </trkpt>
      <trkpt lat="47.95001" lon="2.84563">
        <ele>107</ele>
        <time>2013-09-22T14:36:34Z</time>
      </trkpt>
      <trkpt lat="47.95035" lon="2.84554">
        <ele>107</ele>
        <time>2013-09-22T14:36:36Z</time>
      </trkpt>
      <trkpt lat="47.95068" lon="2.84544">
        <ele>105</ele>
        <time>2013-09-22T14:36:38Z</time>
      </trkpt>
      <trkpt lat="47.95102" lon="2.84537">
        <ele>105</ele>
        <time>2013-09-22T14:36:40Z</time>
      </trkpt>
      <trkpt lat="47.95129" lon="2.84528">
        <ele>102</ele>
        <time>2013-09-22T14:36:42Z</time>
      </trkpt>
      <trkpt lat="47.95153" lon="2.84516">
        <ele>103</ele>
        <time>2013-09-22T14:36:44Z</time>
      </trkpt>
      <trkpt lat="47.95173" lon="2.84484">
        <ele>101</ele>
        <time>2013-09-22T14:36:46Z</time>
      </trkpt>
      <trkpt lat="47.95186" lon="2.84463">
        <ele>102</ele>
        <time>2013-09-22T14:36:47Z</time>
      </trkpt>
      <trkpt lat="47.95198" lon="2.84441">
        <ele>103</ele>
        <time>2013-09-22T14:36:48Z</time>
      </trkpt>
      <trkpt lat="47.95213" lon="2.8442">
        <ele>105</ele>
        <time>2013-09-22T14:36:49Z</time>
      </trkpt>
      <trkpt lat="47.95224" lon="2.84398">
        <ele>105</ele>
        <time>2013-09-22T14:36:50Z</time>
      </trkpt>
      <trkpt lat="47.95245" lon="2.84359">
        <ele>105</ele>
        <time>2013-09-22T14:36:52Z</time>
      </trkpt>
      <trkpt lat="47.95264" lon="2.84326">
        <ele>103</ele>
        <time>2013-09-22T14:36:54Z</time>
      </trkpt>
      <trkpt lat="47.95279" lon="2.84299">
        <ele>104</ele>
        <time>2013-09-22T14:36:56Z</time>
      </trkpt>
      <trkpt lat="47.95293" lon="2.84278">
        <ele>106</ele>
        <time>2013-09-22T14:36:58Z</time>
      </trkpt>
      <trkpt lat="47.95312" lon="2.84283">
        <ele>103</ele>
        <time>2013-09-22T14:37:06Z</time>
      </trkpt>
      <trkpt lat="47.95316" lon="2.84311">
        <ele>103</ele>
        <time>2013-09-22T14:37:08Z</time>
      </trkpt>
      <trkpt lat="47.95321" lon="2.84347">
        <ele>104</ele>
        <time>2013-09-22T14:37:10Z</time>
      </trkpt>
      <trkpt lat="47.95328" lon="2.84382">
        <ele>103</ele>
        <time>2013-09-22T14:37:12Z</time>
      </trkpt>
      <trkpt lat="47.95333" lon="2.84417">
        <ele>102</ele>
        <time>2013-09-22T14:37:14Z</time>
      </trkpt>
      <trkpt lat="47.95338" lon="2.84453">
        <ele>101</ele>
        <time>2013-09-22T14:37:16Z</time>
      </trkpt>
      <trkpt lat="47.95344" lon="2.84487">
        <ele>103</ele>
        <time>2013-09-22T14:37:18Z</time>
      </trkpt>
      <trkpt lat="47.95349" lon="2.84518">
        <ele>102</ele>
        <time>2013-09-22T14:37:20Z</time>
      </trkpt>
      <trkpt lat="47.95354" lon="2.84554">
        <ele>105</ele>
        <time>2013-09-22T14:37:22Z</time>
      </trkpt>
      <trkpt lat="47.95361" lon="2.84584">
        <ele>104</ele>
        <time>2013-09-22T14:37:24Z</time>
      </trkpt>
      <trkpt lat="47.95368" lon="2.84615">
        <ele>104</ele>
        <time>2013-09-22T14:37:26Z</time>
      </trkpt>
      <trkpt lat="47.95375" lon="2.84642">
        <ele>103</ele>
        <time>2013-09-22T14:37:28Z</time>
      </trkpt>
      <trkpt lat="47.95381" lon="2.8467">
        <ele>102</ele>
        <time>2013-09-22T14:37:32Z</time>
      </trkpt>
      <trkpt lat="47.95403" lon="2.84646">
        <ele>104</ele>
        <time>2013-09-22T14:37:37Z</time>
      </trkpt>
      <trkpt lat="47.95417" lon="2.84616">
        <ele>104</ele>
        <time>2013-09-22T14:37:39Z</time>
      </trkpt>
      <trkpt lat="47.95436" lon="2.84579">
        <ele>106</ele>
        <time>2013-09-22T14:37:41Z</time>
      </trkpt>
      <trkpt lat="47.95454" lon="2.84541">
        <ele>107</ele>
        <time>2013-09-22T14:37:43Z</time>
      </trkpt>
      <trkpt lat="47.95476" lon="2.84501">
        <ele>111</ele>
        <time>2013-09-22T14:37:45Z</time>
      </trkpt>
      <trkpt lat="47.95497" lon="2.84461">
        <ele>114</ele>
        <time>2013-09-22T14:37:47Z</time>
      </trkpt>
      <trkpt lat="47.9552" lon="2.84423">
        <ele>115</ele>
        <time>2013-09-22T14:37:49Z</time>
      </trkpt>
      <trkpt lat="47.95534" lon="2.84404">
        <ele>116</ele>
        <time>2013-09-22T14:37:50Z</time>
      </trkpt>
      <trkpt lat="47.9555" lon="2.84389">
        <ele>117</ele>
        <time>2013-09-22T14:37:51Z</time>
      </trkpt>
      <trkpt lat="47.95565" lon="2.84371">
        <ele>119</ele>
        <time>2013-09-22T14:37:52Z</time>
      </trkpt>
      <trkpt lat="47.95588" lon="2.84332">
        <ele>122</ele>
        <time>2013-09-22T14:37:54Z</time>
      </trkpt>
      <trkpt lat="47.95607" lon="2.8429">
        <ele>126</ele>
        <time>2013-09-22T14:37:56Z</time>
      </trkpt>
      <trkpt lat="47.95623" lon="2.84245">
        <ele>127</ele>
        <time>2013-09-22T14:37:58Z</time>
      </trkpt>
      <trkpt lat="47.95637" lon="2.84206">
        <ele>130</ele>
        <time>2013-09-22T14:38:00Z</time>
      </trkpt>
      <trkpt lat="47.95651" lon="2.84171">
        <ele>133</ele>
        <time>2013-09-22T14:38:02Z</time>
      </trkpt>
      <trkpt lat="47.95664" lon="2.84147">
        <ele>134</ele>
        <time>2013-09-22T14:38:04Z</time>
      </trkpt>
      <trkpt lat="47.95665" lon="2.84119">
        <ele>135</ele>
        <time>2013-09-22T14:38:09Z</time>
      </trkpt>
      <trkpt lat="47.95637" lon="2.84106">
        <ele>136</ele>
        <time>2013-09-22T14:38:12Z</time>
      </trkpt>
      <trkpt lat="47.95617" lon="2.84096">
        <ele>135</ele>
        <time>2013-09-22T14:38:14Z</time>
      </trkpt>
      <trkpt lat="47.95595" lon="2.84086">
        <ele>134</ele>
        <time>2013-09-22T14:38:16Z</time>
      </trkpt>
      <trkpt lat="47.95572" lon="2.84075">
        <ele>133</ele>
        <time>2013-09-22T14:38:18Z</time>
      </trkpt>
      <trkpt lat="47.95549" lon="2.84065">
        <ele>131</ele>
        <time>2013-09-22T14:38:20Z</time>
      </trkpt>
      <trkpt lat="47.95526" lon="2.84054">
        <ele>129</ele>
        <time>2013-09-22T14:38:22Z</time>
      </trkpt>
      <trkpt lat="47.95503" lon="2.84043">
        <ele>129</ele>
        <time>2013-09-22T14:38:24Z</time>
      </trkpt>
      <trkpt lat="47.9548" lon="2.84033">
        <ele>129</ele>
        <time>2013-09-22T14:38:26Z</time>
      </trkpt>
      <trkpt lat="47.95458" lon="2.84024">
        <ele>127</ele>
        <time>2013-09-22T14:38:28Z</time>
      </trkpt>
      <trkpt lat="47.95438" lon="2.84012">
        <ele>128</ele>
        <time>2013-09-22T14:38:31Z</time>
      </trkpt>
      <trkpt lat="47.95437" lon="2.83978">
        <ele>129</ele>
        <time>2013-09-22T14:38:35Z</time>
      </trkpt>
      <trkpt lat="47.95438" lon="2.83949">
        <ele>131</ele>
        <time>2013-09-22T14:38:38Z</time>
      </trkpt>
      <trkpt lat="47.95424" lon="2.83973">
        <ele>128</ele>
        <time>2013-09-22T14:38:46Z</time>
      </trkpt>
      <trkpt lat="47.95424" lon="2.84001">
        <ele>126</ele>
        <time>2013-09-22T14:38:50Z</time>
      </trkpt>
    </trkseg>
  </trk>
</gpx>